Wetterdaten: Freitag, 19.05.2023
Datum Zeit Temp. Aussen Temp. o. S. Temp +5cm Feuchte Auss Luftdruck Regen Sonnenschein Regendauer Solar Windben Empfang
19.05.2023 00:00 11,8 C 10,6 C 7,2 C 70 % 1026,4 hPa 0,0 l/m 0 min 0 min 0 W/m 3,2 km/h (1 Bft) 97,87 %
19.05.2023 00:02 11,7 C 10,6 C 7,2 C 71 % 1026,4 hPa 0,0 l/m 0 min 0 min 0 W/m 3,2 km/h (1 Bft) 100,00 %
19.05.2023 00:04 11,7 C 10,6 C 7,2 C 71 % 1026,4 hPa 0,0 l/m 0 min 0 min 0 W/m 6,4 km/h (2 Bft) 100,00 %
19.05.2023 00:07 11,7 C 10,6 C 7,2 C 71 % 1026,4 hPa 0,0 l/m 0 min 0 min 0 W/m 6,4 km/h (2 Bft) 100,00 %
19.05.2023 00:08 11,7 C 10,6 C 7,2 C 71 % 1026,4 hPa 0,0 l/m 0 min 0 min 0 W/m 6,4 km/h (2 Bft) 100,00 %
19.05.2023 00:12 11,6 C 10,6 C 7,2 C 71 % 1026,4 hPa 0,0 l/m 0 min 0 min 0 W/m 3,2 km/h (1 Bft) 100,00 %
19.05.2023 00:14 11,6 C 10,6 C 7,2 C 71 % 1026,4 hPa 0,0 l/m 0 min 0 min 0 W/m 6,4 km/h (2 Bft) 97,96 %
19.05.2023 00:16 11,6 C 10,6 C 7,2 C 71 % 1026,4 hPa 0,0 l/m 0 min 0 min 0 W/m 3,2 km/h (1 Bft) 100,00 %
19.05.2023 00:18 11,6 C 10,6 C 7,2 C 71 % 1026,4 hPa 0,0 l/m 0 min 0 min 0 W/m 3,2 km/h (1 Bft) 97,87 %
19.05.2023 00:20 11,5 C 10,6 C 7,2 C 71 % 1026,4 hPa 0,0 l/m 0 min 0 min 0 W/m 6,4 km/h (2 Bft) 95,65 %
19.05.2023 00:22 11,5 C 10,6 C 7,2 C 71 % 1026,4 hPa 0,0 l/m 0 min 0 min 0 W/m 6,4 km/h (2 Bft) 97,87 %
19.05.2023 00:24 11,4 C 10,6 C 7,2 C 72 % 1026,4 hPa 0,0 l/m 0 min 0 min 0 W/m 12,9 km/h (3 Bft) 97,87 %
19.05.2023 00:26 11,4 C 10,6 C 7,2 C 72 % 1026,4 hPa 0,0 l/m 0 min 0 min 0 W/m 3,2 km/h (1 Bft) 95,74 %
19.05.2023 00:28 11,4 C 10,6 C 7,2 C 72 % 1026,3 hPa 0,0 l/m 0 min 0 min 0 W/m 3,2 km/h (1 Bft) 97,87 %
19.05.2023 00:30 11,4 C 10,6 C 7,2 C 72 % 1026,3 hPa 0,0 l/m 0 min 0 min 0 W/m 6,4 km/h (2 Bft) 97,87 %
19.05.2023 00:32 11,4 C 10,6 C 7,2 C 72 % 1026,3 hPa 0,0 l/m 0 min 0 min 0 W/m 9,7 km/h (2 Bft) 97,87 %
19.05.2023 00:34 11,3 C 10,6 C 7,2 C 72 % 1026,3 hPa 0,0 l/m 0 min 0 min 0 W/m 3,2 km/h (1 Bft) 95,65 %
19.05.2023 00:36 11,3 C 10,6 C 7,2 C 72 % 1026,3 hPa 0,0 l/m 0 min 0 min 0 W/m 3,2 km/h (1 Bft) 97,87 %
19.05.2023 00:38 11,3 C 10,6 C 7,2 C 72 % 1026,3 hPa 0,0 l/m 0 min 0 min 0 W/m 3,2 km/h (1 Bft) 97,87 %
19.05.2023 00:40 11,3 C 10,6 C 7,2 C 72 % 1026,3 hPa 0,0 l/m 0 min 0 min 0 W/m 12,9 km/h (3 Bft) 97,96 %
19.05.2023 00:42 11,3 C 10,6 C 7,2 C 72 % 1026,4 hPa 0,0 l/m 0 min 0 min 0 W/m 3,2 km/h (1 Bft) 97,87 %
19.05.2023 00:44 11,3 C 10,0 C 6,7 C 73 % 1026,3 hPa 0,0 l/m 0 min 0 min 0 W/m 6,4 km/h (2 Bft) 95,74 %
19.05.2023 00:46 11,2 C 10,0 C 6,7 C 72 % 1026,3 hPa 0,0 l/m 0 min 0 min 0 W/m 9,7 km/h (2 Bft) 97,87 %
19.05.2023 00:48 11,2 C 10,0 C 6,7 C 73 % 1026,4 hPa 0,0 l/m 0 min 0 min 0 W/m 3,2 km/h (1 Bft) 100,00 %
19.05.2023 00:50 11,2 C 10,0 C 6,7 C 73 % 1026,4 hPa 0,0 l/m 0 min 0 min 0 W/m 6,4 km/h (2 Bft) 97,87 %
19.05.2023 00:52 11,2 C 10,0 C 6,7 C 73 % 1026,3 hPa 0,0 l/m 0 min 0 min 0 W/m 6,4 km/h (2 Bft) 97,87 %
19.05.2023 00:54 11,1 C 10,0 C 6,7 C 72 % 1026,3 hPa 0,0 l/m 0 min 0 min 0 W/m 6,4 km/h (2 Bft) 97,87 %
19.05.2023 00:56 11,1 C 10,0 C 6,7 C 73 % 1026,3 hPa 0,0 l/m 0 min 0 min 0 W/m 9,7 km/h (2 Bft) 100,00 %
19.05.2023 00:58 11,1 C 10,0 C 6,7 C 73 % 1026,3 hPa 0,0 l/m 0 min 0 min 0 W/m 6,4 km/h (2 Bft) 97,87 %
19.05.2023 01:00 11,1 C 10,0 C 6,7 C 73 % 1026,4 hPa 0,0 l/m 0 min 0 min 0 W/m 6,4 km/h (2 Bft) 97,87 %
19.05.2023 01:02 11,1 C 10,0 C 6,7 C 73 % 1026,3 hPa 0,0 l/m 0 min 0 min 0 W/m 3,2 km/h (1 Bft) 97,83 %
19.05.2023 01:04 11,1 C 10,0 C 6,7 C 73 % 1026,3 hPa 0,0 l/m 0 min 0 min 0 W/m 3,2 km/h (1 Bft) 97,96 %
19.05.2023 01:06 11,0 C 10,0 C 6,7 C 73 % 1026,4 hPa 0,0 l/m 0 min 0 min 0 W/m 3,2 km/h (1 Bft) 97,96 %
19.05.2023 01:08 11,0 C 10,0 C 6,7 C 73 % 1026,4 hPa 0,0 l/m 0 min 0 min 0 W/m 6,4 km/h (2 Bft) 97,87 %
19.05.2023 01:10 10,9 C 10,0 C 6,7 C 73 % 1026,4 hPa 0,0 l/m 0 min 0 min 0 W/m 6,4 km/h (2 Bft) 97,87 %
19.05.2023 01:12 10,9 C 10,0 C 6,7 C 73 % 1026,4 hPa 0,0 l/m 0 min 0 min 0 W/m 6,4 km/h (2 Bft) 95,74 %
19.05.2023 01:14 10,9 C 10,0 C 6,7 C 73 % 1026,4 hPa 0,0 l/m 0 min 0 min 0 W/m 9,7 km/h (2 Bft) 97,83 %
19.05.2023 01:16 10,9 C 10,0 C 6,7 C 73 % 1026,3 hPa 0,0 l/m 0 min 0 min 0 W/m 6,4 km/h (2 Bft) 97,87 %
19.05.2023 01:18 10,9 C 10,0 C 6,7 C 73 % 1026,4 hPa 0,0 l/m 0 min 0 min 0 W/m 3,2 km/h (1 Bft) 95,74 %
19.05.2023 01:20 10,8 C 10,0 C 6,7 C 73 % 1026,4 hPa 0,0 l/m 0 min 0 min 0 W/m 6,4 km/h (2 Bft) 90,74 %
19.05.2023 01:22 10,8 C 10,0 C 6,7 C 73 % 1026,3 hPa 0,0 l/m 0 min 0 min 0 W/m 6,4 km/h (2 Bft) 95,74 %
19.05.2023 01:24 10,8 C 10,0 C 6,7 C 74 % 1026,3 hPa 0,0 l/m 0 min 0 min 0 W/m 6,4 km/h (2 Bft) 93,62 %
19.05.2023 01:26 10,8 C 10,0 C 6,7 C 74 % 1026,3 hPa 0,0 l/m 0 min 0 min 0 W/m 6,4 km/h (2 Bft) 92,11 %
19.05.2023 01:28 10,8 C 10,0 C 6,7 C 74 % 1026,3 hPa 0,0 l/m 0 min 0 min 0 W/m 6,4 km/h (2 Bft) 95,74 %
19.05.2023 01:30 10,8 C 10,0 C 6,7 C 74 % 1026,3 hPa 0,0 l/m 0 min 0 min 0 W/m 3,2 km/h (1 Bft) 95,65 %
19.05.2023 01:32 10,8 C 10,0 C 6,7 C 74 % 1026,2 hPa 0,0 l/m 0 min 0 min 0 W/m 3,2 km/h (1 Bft) 95,74 %
19.05.2023 01:34 10,7 C 10,0 C 6,7 C 74 % 1026,3 hPa 0,0 l/m 0 min 0 min 0 W/m 9,7 km/h (2 Bft) 95,74 %
19.05.2023 01:36 10,7 C 10,0 C 6,7 C 74 % 1026,2 hPa 0,0 l/m 0 min 0 min 0 W/m 9,7 km/h (2 Bft) 97,87 %
19.05.2023 01:38 10,7 C 9,4 C 6,1 C 74 % 1026,2 hPa 0,0 l/m 0 min 0 min 0 W/m 3,2 km/h (1 Bft) 95,74 %
19.05.2023 01:40 10,7 C 9,4 C 6,1 C 74 % 1026,2 hPa 0,0 l/m 0 min 0 min 0 W/m 3,2 km/h (1 Bft) 97,92 %
19.05.2023 01:42 10,7 C 9,4 C 6,1 C 74 % 1026,2 hPa 0,0 l/m 0 min 0 min 0 W/m 3,2 km/h (1 Bft) 95,74 %
19.05.2023 01:44 10,6 C 9,4 C 6,1 C 74 % 1026,2 hPa 0,0 l/m 0 min 0 min 0 W/m 6,4 km/h (2 Bft) 97,83 %
19.05.2023 01:46 10,6 C 9,4 C 6,1 C 74 % 1026,2 hPa 0,0 l/m 0 min 0 min 0 W/m 6,4 km/h (2 Bft) 93,62 %
19.05.2023 01:48 10,6 C 9,4 C 6,1 C 75 % 1026,2 hPa 0,0 l/m 0 min 0 min 0 W/m 6,4 km/h (2 Bft) 97,87 %
19.05.2023 01:50 10,6 C 9,4 C 6,1 C 75 % 1026,2 hPa 0,0 l/m 0 min 0 min 0 W/m 6,4 km/h (2 Bft) 97,92 %
19.05.2023 01:52 10,5 C 9,4 C 6,1 C 75 % 1026,2 hPa 0,0 l/m 0 min 0 min 0 W/m 3,2 km/h (1 Bft) 95,65 %
19.05.2023 01:54 10,5 C 9,4 C 6,1 C 75 % 1026,2 hPa 0,0 l/m 0 min 0 min 0 W/m 6,4 km/h (2 Bft) 95,83 %
19.05.2023 01:56 10,5 C 9,4 C 6,1 C 75 % 1026,2 hPa 0,0 l/m 0 min 0 min 0 W/m 3,2 km/h (1 Bft) 97,83 %
19.05.2023 01:58 10,4 C 9,4 C 6,1 C 75 % 1026,1 hPa 0,0 l/m 0 min 0 min 0 W/m 6,4 km/h (2 Bft) 95,74 %
19.05.2023 02:00 10,4 C 9,4 C 6,1 C 75 % 1026,2 hPa 0,0 l/m 0 min 0 min 0 W/m 3,2 km/h (1 Bft) 98,00 %
19.05.2023 02:02 10,4 C 9,4 C 6,1 C 75 % 1026,2 hPa 0,0 l/m 0 min 0 min 0 W/m 3,2 km/h (1 Bft) 95,74 %
19.05.2023 02:04 10,4 C 9,4 C 6,1 C 75 % 1026,1 hPa 0,0 l/m 0 min 0 min 0 W/m 3,2 km/h (1 Bft) 95,83 %
19.05.2023 02:06 10,3 C 9,4 C 6,1 C 75 % 1026,1 hPa 0,0 l/m 0 min 0 min 0 W/m 3,2 km/h (1 Bft) 95,74 %
19.05.2023 02:08 10,3 C 8,9 C 6,1 C 76 % 1026,2 hPa 0,0 l/m 0 min 0 min 0 W/m 0,0 km/h (0 Bft) 95,74 %
19.05.2023 02:10 10,3 C 8,9 C 6,1 C 76 % 1026,1 hPa 0,0 l/m 0 min 0 min 0 W/m 0,0 km/h (0 Bft) 91,11 %
19.05.2023 02:12 10,3 C 8,9 C 5,6 C 76 % 1026,2 hPa 0,0 l/m 0 min 0 min 0 W/m 0,0 km/h (0 Bft) 95,74 %
19.05.2023 02:14 10,3 C 8,9 C 5,6 C 76 % 1026,2 hPa 0,0 l/m 0 min 0 min 0 W/m 0,0 km/h (0 Bft) 93,62 %
19.05.2023 02:16 10,2 C 8,9 C 5,6 C 76 % 1026,1 hPa 0,0 l/m 0 min 0 min 0 W/m 0,0 km/h (0 Bft) 95,74 %
19.05.2023 02:18 10,2 C 8,9 C 5,6 C 76 % 1026,2 hPa 0,0 l/m 0 min 0 min 0 W/m 0,0 km/h (0 Bft) 95,83 %
19.05.2023 02:20 10,2 C 8,9 C 5,6 C 77 % 1026,2 hPa 0,0 l/m 0 min 0 min 0 W/m 0,0 km/h (0 Bft) 97,87 %
19.05.2023 02:22 10,2 C 8,9 C 5,6 C 77 % 1026,2 hPa 0,0 l/m 0 min 0 min 0 W/m 0,0 km/h (0 Bft) 97,83 %
19.05.2023 02:24 10,1 C 8,9 C 5,6 C 77 % 1026,1 hPa 0,0 l/m 0 min 0 min 0 W/m 0,0 km/h (0 Bft) 95,74 %
19.05.2023 02:26 10,1 C 8,9 C 5,6 C 77 % 1026,1 hPa 0,0 l/m 0 min 0 min 0 W/m 0,0 km/h (0 Bft) 95,74 %
19.05.2023 02:28 10,1 C 8,9 C 5,6 C 77 % 1026,1 hPa 0,0 l/m 0 min 0 min 0 W/m 0,0 km/h (0 Bft) 100,00 %
19.05.2023 02:30 10,1 C 8,3 C 5,6 C 78 % 1026,1 hPa 0,0 l/m 0 min 0 min 0 W/m 3,2 km/h (1 Bft) 100,00 %
19.05.2023 02:32 10,0 C 8,3 C 5,6 C 77 % 1026,1 hPa 0,0 l/m 0 min 0 min 0 W/m 3,2 km/h (1 Bft) 100,00 %
19.05.2023 02:34 9,9 C 8,3 C 5,6 C 78 % 1026,1 hPa 0,0 l/m 0 min 0 min 0 W/m 3,2 km/h (1 Bft) 97,83 %
19.05.2023 02:36 9,9 C 8,3 C 5,6 C 78 % 1026,1 hPa 0,0 l/m 0 min 0 min 0 W/m 3,2 km/h (1 Bft) 100,00 %
19.05.2023 02:38 9,9 C 8,3 C 5,6 C 78 % 1026,1 hPa 0,0 l/m 0 min 0 min 0 W/m 3,2 km/h (1 Bft) 100,00 %
19.05.2023 02:40 9,8 C 8,3 C 5,6 C 78 % 1026,2 hPa 0,0 l/m 0 min 0 min 0 W/m 0,0 km/h (0 Bft) 100,00 %
19.05.2023 02:42 9,8 C 8,3 C 5,6 C 78 % 1026,1 hPa 0,0 l/m 0 min 0 min 0 W/m 0,0 km/h (0 Bft) 100,00 %
19.05.2023 02:44 9,8 C 8,3 C 5,6 C 79 % 1026,1 hPa 0,0 l/m 0 min 0 min 0 W/m 0,0 km/h (0 Bft) 100,00 %
19.05.2023 02:46 9,8 C 8,3 C 5,6 C 79 % 1026,1 hPa 0,0 l/m 0 min 0 min 0 W/m 3,2 km/h (1 Bft) 100,00 %
19.05.2023 02:48 9,7 C 8,3 C 5,6 C 79 % 1026,1 hPa 0,0 l/m 0 min 0 min 0 W/m 0,0 km/h (0 Bft) 100,00 %
19.05.2023 02:50 9,7 C 8,3 C 5,0 C 79 % 1026,1 hPa 0,0 l/m 0 min 0 min 0 W/m 0,0 km/h (0 Bft) 100,00 %
19.05.2023 02:52 9,7 C 8,3 C 5,0 C 79 % 1026,1 hPa 0,0 l/m 0 min 0 min 0 W/m 3,2 km/h (1 Bft) 100,00 %
19.05.2023 02:54 9,6 C 8,3 C 5,0 C 79 % 1026,1 hPa 0,0 l/m 0 min 0 min 0 W/m 0,0 km/h (0 Bft) 100,00 %
19.05.2023 02:56 9,6 C 8,3 C 5,0 C 79 % 1026,1 hPa 0,0 l/m 0 min 0 min 0 W/m 0,0 km/h (0 Bft) 100,00 %
19.05.2023 02:58 9,6 C 8,3 C 5,0 C 80 % 1026,1 hPa 0,0 l/m 0 min 0 min 0 W/m 3,2 km/h (1 Bft) 100,00 %
19.05.2023 03:00 9,6 C 8,3 C 5,0 C 80 % 1026,1 hPa 0,0 l/m 0 min 0 min 0 W/m 0,0 km/h (0 Bft) 100,00 %
19.05.2023 03:02 9,5 C 8,3 C 5,0 C 80 % 1026,1 hPa 0,0 l/m 0 min 0 min 0 W/m 0,0 km/h (0 Bft) 97,87 %
19.05.2023 03:04 9,5 C 7,8 C 5,0 C 80 % 1026,0 hPa 0,0 l/m 0 min 0 min 0 W/m 0,0 km/h (0 Bft) 100,00 %
19.05.2023 03:06 9,4 C 7,8 C 5,0 C 80 % 1026,0 hPa 0,0 l/m 0 min 0 min 0 W/m 0,0 km/h (0 Bft) 97,87 %
19.05.2023 03:08 9,4 C 7,8 C 5,0 C 80 % 1026,1 hPa 0,0 l/m 0 min 0 min 0 W/m 0,0 km/h (0 Bft) 97,87 %
19.05.2023 03:10 9,4 C 7,8 C 5,0 C 81 % 1026,0 hPa 0,0 l/m 0 min 0 min 0 W/m 0,0 km/h (0 Bft) 95,74 %
19.05.2023 03:12 9,3 C 7,8 C 5,0 C 81 % 1026,0 hPa 0,0 l/m 0 min 0 min 0 W/m 0,0 km/h (0 Bft) 97,87 %
19.05.2023 03:14 9,3 C 7,8 C 5,0 C 81 % 1026,0 hPa 0,0 l/m 0 min 0 min 0 W/m 0,0 km/h (0 Bft) 97,83 %
19.05.2023 03:16 9,3 C 7,8 C 5,0 C 81 % 1026,0 hPa 0,0 l/m 0 min 0 min 0 W/m 0,0 km/h (0 Bft) 97,87 %
19.05.2023 03:18 9,3 C 7,8 C 5,0 C 81 % 1026,0 hPa 0,0 l/m 0 min 0 min 0 W/m 3,2 km/h (1 Bft) 97,87 %
19.05.2023 03:20 9,2 C 7,8 C 5,0 C 81 % 1026,0 hPa 0,0 l/m 0 min 0 min 0 W/m 3,2 km/h (1 Bft) 97,87 %
19.05.2023 03:22 9,2 C 7,8 C 5,0 C 81 % 1026,0 hPa 0,0 l/m 0 min 0 min 0 W/m 0,0 km/h (0 Bft) 97,87 %
19.05.2023 03:24 9,1 C 7,8 C 5,0 C 81 % 1026,0 hPa 0,0 l/m 0 min 0 min 0 W/m 0,0 km/h (0 Bft) 97,87 %
19.05.2023 03:26 9,1 C 7,8 C 5,0 C 82 % 1025,9 hPa 0,0 l/m 0 min 0 min 0 W/m 3,2 km/h (1 Bft) 95,65 %
19.05.2023 03:28 9,1 C 7,8 C 5,0 C 82 % 1025,9 hPa 0,0 l/m 0 min 0 min 0 W/m 0,0 km/h (0 Bft) 97,92 %
19.05.2023 03:30 9,1 C 7,8 C 5,0 C 82 % 1025,9 hPa 0,0 l/m 0 min 0 min 0 W/m 0,0 km/h (0 Bft) 97,62 %
19.05.2023 03:32 9,0 C 7,8 C 5,0 C 82 % 1026,0 hPa 0,0 l/m 0 min 0 min 0 W/m 0,0 km/h (0 Bft) 95,74 %
19.05.2023 03:34 9,0 C 7,8 C 5,0 C 82 % 1025,9 hPa 0,0 l/m 0 min 0 min 0 W/m 0,0 km/h (0 Bft) 93,62 %
19.05.2023 03:36 9,0 C 7,8 C 5,0 C 82 % 1026,0 hPa 0,0 l/m 0 min 0 min 0 W/m 0,0 km/h (0 Bft) 93,62 %
19.05.2023 03:38 8,9 C 7,8 C 4,4 C 82 % 1026,0 hPa 0,0 l/m 0 min 0 min 0 W/m 0,0 km/h (0 Bft) 97,87 %
19.05.2023 03:40 8,9 C 7,8 C 4,4 C 82 % 1026,0 hPa 0,0 l/m 0 min 0 min 0 W/m 0,0 km/h (0 Bft) 97,87 %
19.05.2023 03:42 8,9 C 7,8 C 4,4 C 82 % 1026,0 hPa 0,0 l/m 0 min 0 min 0 W/m 0,0 km/h (0 Bft) 97,87 %
19.05.2023 03:44 8,8 C 7,2 C 4,4 C 83 % 1026,0 hPa 0,0 l/m 0 min 0 min 0 W/m 0,0 km/h (0 Bft) 97,87 %
19.05.2023 03:46 8,8 C 7,2 C 4,4 C 83 % 1026,0 hPa 0,0 l/m 0 min 0 min 0 W/m 0,0 km/h (0 Bft) 95,74 %
19.05.2023 03:48 8,8 C 7,2 C 4,4 C 83 % 1026,0 hPa 0,0 l/m 0 min 0 min 0 W/m 0,0 km/h (0 Bft) 97,87 %
19.05.2023 03:50 8,8 C 7,2 C 4,4 C 83 % 1026,0 hPa 0,0 l/m 0 min 0 min 0 W/m 0,0 km/h (0 Bft) 98,00 %
19.05.2023 03:52 8,8 C 7,2 C 4,4 C 83 % 1026,0 hPa 0,0 l/m 0 min 0 min 0 W/m 0,0 km/h (0 Bft) 97,87 %
19.05.2023 03:54 8,8 C 7,2 C 4,4 C 83 % 1026,1 hPa 0,0 l/m 0 min 0 min 0 W/m 0,0 km/h (0 Bft) 97,83 %
19.05.2023 03:56 8,8 C 7,2 C 4,4 C 83 % 1026,1 hPa 0,0 l/m 0 min 0 min 0 W/m 0,0 km/h (0 Bft) 97,87 %
19.05.2023 03:58 8,7 C 7,2 C 4,4 C 83 % 1026,0 hPa 0,0 l/m 0 min 0 min 0 W/m 0,0 km/h (0 Bft) 95,74 %
19.05.2023 04:00 8,7 C 7,2 C 4,4 C 84 % 1026,1 hPa 0,0 l/m 0 min 0 min 0 W/m 0,0 km/h (0 Bft) 100,00 %
19.05.2023 04:02 8,7 C 7,2 C 4,4 C 84 % 1026,1 hPa 0,0 l/m 0 min 0 min 0 W/m 0,0 km/h (0 Bft) 96,97 %
19.05.2023 04:04 8,7 C 7,2 C 4,4 C 84 % 1026,1 hPa 0,0 l/m 0 min 0 min 0 W/m 0,0 km/h (0 Bft) 100,00 %
19.05.2023 04:06 8,6 C 7,2 C 4,4 C 84 % 1026,1 hPa 0,0 l/m 0 min 0 min 0 W/m 0,0 km/h (0 Bft) 100,00 %
19.05.2023 04:08 8,6 C 7,2 C 4,4 C 84 % 1026,1 hPa 0,0 l/m 0 min 0 min 0 W/m 0,0 km/h (0 Bft) 97,30 %
19.05.2023 04:10 8,6 C 7,2 C 4,4 C 84 % 1026,1 hPa 0,0 l/m 0 min 0 min 0 W/m 0,0 km/h (0 Bft) 100,00 %
19.05.2023 04:12 8,6 C 7,2 C 4,4 C 84 % 1026,1 hPa 0,0 l/m 0 min 0 min 0 W/m 0,0 km/h (0 Bft) 100,00 %
19.05.2023 04:14 8,6 C 7,2 C 4,4 C 84 % 1026,1 hPa 0,0 l/m 0 min 0 min 0 W/m 0,0 km/h (0 Bft) 100,00 %
19.05.2023 04:16 8,6 C 7,2 C 4,4 C 84 % 1026,0 hPa 0,0 l/m 0 min 0 min 0 W/m 0,0 km/h (0 Bft) 100,00 %
19.05.2023 04:18 8,5 C 7,2 C 4,4 C 84 % 1026,0 hPa 0,0 l/m 0 min 0 min 0 W/m 0,0 km/h (0 Bft) 100,00 %
19.05.2023 04:20 8,5 C 7,2 C 4,4 C 85 % 1026,0 hPa 0,0 l/m 0 min 0 min 0 W/m 0,0 km/h (0 Bft) 100,00 %
19.05.2023 04:22 8,4 C 7,2 C 4,4 C 85 % 1026,0 hPa 0,0 l/m 0 min 0 min 0 W/m 0,0 km/h (0 Bft) 95,74 %
19.05.2023 04:24 8,4 C 7,2 C 3,9 C 85 % 1026,0 hPa 0,0 l/m 0 min 0 min 0 W/m 0,0 km/h (0 Bft) 97,87 %
19.05.2023 04:26 8,4 C 7,2 C 3,9 C 85 % 1026,0 hPa 0,0 l/m 0 min 0 min 0 W/m 0,0 km/h (0 Bft) 100,00 %
19.05.2023 04:28 8,4 C 7,2 C 3,9 C 85 % 1026,0 hPa 0,0 l/m 0 min 0 min 0 W/m 0,0 km/h (0 Bft) 100,00 %
19.05.2023 04:30 8,3 C 7,2 C 3,9 C 85 % 1026,0 hPa 0,0 l/m 0 min 0 min 0 W/m 3,2 km/h (1 Bft) 97,83 %
19.05.2023 04:32 8,3 C 7,2 C 3,9 C 85 % 1025,9 hPa 0,0 l/m 0 min 0 min 0 W/m 0,0 km/h (0 Bft) 97,87 %
19.05.2023 04:34 8,3 C 7,2 C 3,9 C 85 % 1025,9 hPa 0,0 l/m 0 min 0 min 0 W/m 0,0 km/h (0 Bft) 100,00 %
19.05.2023 04:36 8,3 C 7,2 C 3,9 C 85 % 1025,9 hPa 0,0 l/m 0 min 0 min 0 W/m 0,0 km/h (0 Bft) 95,74 %
19.05.2023 04:38 8,2 C 7,2 C 3,9 C 85 % 1025,9 hPa 0,0 l/m 0 min 0 min 0 W/m 3,2 km/h (1 Bft) 100,00 %
19.05.2023 04:40 8,2 C 7,2 C 3,9 C 85 % 1025,9 hPa 0,0 l/m 0 min 0 min 0 W/m 3,2 km/h (1 Bft) 100,00 %
19.05.2023 04:42 8,2 C 7,2 C 4,4 C 85 % 1025,9 hPa 0,0 l/m 0 min 0 min 0 W/m 3,2 km/h (1 Bft) 100,00 %
19.05.2023 04:44 8,1 C 7,2 C 4,4 C 85 % 1025,8 hPa 0,0 l/m 0 min 0 min 0 W/m 3,2 km/h (1 Bft) 100,00 %
19.05.2023 04:46 8,1 C 7,2 C 4,4 C 85 % 1025,8 hPa 0,0 l/m 0 min 0 min 0 W/m 3,2 km/h (1 Bft) 100,00 %
19.05.2023 04:48 8,1 C 7,2 C 4,4 C 85 % 1025,8 hPa 0,0 l/m 0 min 0 min 0 W/m 6,4 km/h (2 Bft) 97,87 %
19.05.2023 04:50 8,1 C 7,2 C 4,4 C 85 % 1025,8 hPa 0,0 l/m 0 min 0 min 0 W/m 0,0 km/h (0 Bft) 100,00 %
19.05.2023 04:52 8,1 C 7,2 C 4,4 C 85 % 1025,7 hPa 0,0 l/m 0 min 0 min 0 W/m 0,0 km/h (0 Bft) 95,74 %
19.05.2023 04:54 8,1 C 7,2 C 4,4 C 85 % 1025,7 hPa 0,0 l/m 0 min 0 min 0 W/m 0,0 km/h (0 Bft) 97,83 %
19.05.2023 04:56 8,1 C 7,2 C 3,9 C 86 % 1025,8 hPa 0,0 l/m 0 min 0 min 0 W/m 3,2 km/h (1 Bft) 100,00 %
19.05.2023 04:58 8,1 C 7,2 C 3,9 C 86 % 1025,7 hPa 0,0 l/m 0 min 0 min 0 W/m 3,2 km/h (1 Bft) 97,87 %
19.05.2023 05:00 8,1 C 7,2 C 3,9 C 86 % 1025,8 hPa 0,0 l/m 0 min 0 min 0 W/m 3,2 km/h (1 Bft) 97,87 %
19.05.2023 05:02 8,0 C 7,2 C 3,9 C 86 % 1025,8 hPa 0,0 l/m 0 min 0 min 0 W/m 0,0 km/h (0 Bft) 93,62 %
19.05.2023 05:04 8,0 C 7,2 C 3,9 C 86 % 1025,8 hPa 0,0 l/m 0 min 0 min 0 W/m 0,0 km/h (0 Bft) 95,83 %
19.05.2023 05:06 8,0 C 7,2 C 3,9 C 86 % 1025,8 hPa 0,0 l/m 0 min 0 min 0 W/m 3,2 km/h (1 Bft) 96,61 %
19.05.2023 05:08 7,9 C 7,2 C 3,9 C 86 % 1025,8 hPa 0,0 l/m 0 min 0 min 0 W/m 3,2 km/h (1 Bft) 94,29 %
19.05.2023 05:10 7,9 C 6,7 C 3,9 C 86 % 1025,8 hPa 0,0 l/m 0 min 0 min 0 W/m 0,0 km/h (0 Bft) 95,74 %
19.05.2023 05:12 7,9 C 6,7 C 3,9 C 86 % 1025,8 hPa 0,0 l/m 0 min 0 min 0 W/m 0,0 km/h (0 Bft) 95,74 %
19.05.2023 05:14 7,9 C 6,7 C 3,9 C 86 % 1025,8 hPa 0,0 l/m 0 min 0 min 0 W/m 3,2 km/h (1 Bft) 93,48 %
19.05.2023 05:16 7,9 C 6,7 C 3,9 C 86 % 1025,8 hPa 0,0 l/m 0 min 0 min 0 W/m 3,2 km/h (1 Bft) 95,74 %
19.05.2023 05:18 7,9 C 6,7 C 3,9 C 86 % 1025,9 hPa 0,0 l/m 0 min 0 min 0 W/m 3,2 km/h (1 Bft) 95,74 %
19.05.2023 05:20 7,9 C 6,7 C 3,9 C 86 % 1025,9 hPa 0,0 l/m 0 min 0 min 0 W/m 3,2 km/h (1 Bft) 91,49 %
19.05.2023 05:22 7,9 C 6,7 C 3,9 C 86 % 1025,9 hPa 0,0 l/m 0 min 0 min 0 W/m 0,0 km/h (0 Bft) 93,62 %
19.05.2023 05:24 7,9 C 6,7 C 3,9 C 86 % 1025,9 hPa 0,0 l/m 0 min 0 min 0 W/m 0,0 km/h (0 Bft) 97,87 %
19.05.2023 05:26 7,9 C 6,7 C 3,9 C 86 % 1025,9 hPa 0,0 l/m 0 min 0 min 0 W/m 3,2 km/h (1 Bft) 93,48 %
19.05.2023 05:28 7,8 C 6,7 C 3,9 C 86 % 1025,8 hPa 0,0 l/m 0 min 0 min 0 W/m 3,2 km/h (1 Bft) 95,74 %
19.05.2023 05:30 7,8 C 6,7 C 3,9 C 86 % 1025,8 hPa 0,0 l/m 0 min 0 min 0 W/m 6,4 km/h (2 Bft) 97,87 %
19.05.2023 05:32 7,8 C 6,7 C 3,9 C 86 % 1025,8 hPa 0,0 l/m 0 min 0 min 0 W/m 6,4 km/h (2 Bft) 97,87 %
19.05.2023 05:34 7,8 C 6,7 C 3,9 C 86 % 1025,8 hPa 0,0 l/m 0 min 0 min 0 W/m 3,2 km/h (1 Bft) 95,74 %
19.05.2023 05:36 7,8 C 6,7 C 3,9 C 87 % 1025,8 hPa 0,0 l/m 0 min 0 min 0 W/m 6,4 km/h (2 Bft) 97,87 %
19.05.2023 05:38 7,8 C 6,7 C 3,9 C 87 % 1025,9 hPa 0,0 l/m 0 min 0 min 0 W/m 3,2 km/h (1 Bft) 97,87 %
19.05.2023 05:40 7,8 C 7,2 C 3,9 C 87 % 1025,9 hPa 0,0 l/m 0 min 0 min 1 W/m 3,2 km/h (1 Bft) 95,65 %
19.05.2023 05:42 7,8 C 7,2 C 3,9 C 87 % 1025,8 hPa 0,0 l/m 0 min 0 min 5 W/m 3,2 km/h (1 Bft) 97,87 %
19.05.2023 05:44 7,8 C 7,2 C 3,9 C 87 % 1025,8 hPa 0,0 l/m 0 min 0 min 5 W/m 3,2 km/h (1 Bft) 97,87 %
19.05.2023 05:46 7,8 C 7,2 C 3,9 C 87 % 1025,8 hPa 0,0 l/m 0 min 0 min 5 W/m 3,2 km/h (1 Bft) 95,74 %
19.05.2023 05:48 7,8 C 7,2 C 3,9 C 87 % 1025,8 hPa 0,0 l/m 0 min 0 min 7 W/m 6,4 km/h (2 Bft) 95,74 %
19.05.2023 05:50 7,8 C 7,2 C 3,9 C 87 % 1025,8 hPa 0,0 l/m 0 min 0 min 7 W/m 3,2 km/h (1 Bft) 97,87 %
19.05.2023 05:52 7,8 C 7,2 C 3,9 C 87 % 1025,8 hPa 0,0 l/m 0 min 0 min 9 W/m 6,4 km/h (2 Bft) 93,48 %
19.05.2023 05:54 7,8 C 7,2 C 3,9 C 87 % 1025,8 hPa 0,0 l/m 0 min 0 min 9 W/m 0,0 km/h (0 Bft) 41,18 %
19.05.2023 05:56 7,7 C 7,2 C 3,9 C 87 % 1025,8 hPa 0,0 l/m 0 min 0 min 11 W/m 3,2 km/h (1 Bft) 95,74 %
19.05.2023 05:58 7,7 C 7,2 C 3,9 C 87 % 1025,8 hPa 0,0 l/m 0 min 0 min 12 W/m 3,2 km/h (1 Bft) 95,74 %
19.05.2023 06:00 7,7 C 7,2 C 3,9 C 87 % 1025,8 hPa 0,0 l/m 0 min 0 min 12 W/m 3,2 km/h (1 Bft) 95,74 %
19.05.2023 06:02 7,7 C 7,2 C 3,9 C 87 % 1025,8 hPa 0,0 l/m 0 min 0 min 14 W/m 3,2 km/h (1 Bft) 97,87 %
19.05.2023 06:04 7,7 C 7,2 C 3,9 C 87 % 1025,9 hPa 0,0 l/m 0 min 0 min 14 W/m 3,2 km/h (1 Bft) 97,67 %
19.05.2023 06:07 7,7 C 7,2 C 3,9 C 87 % 1025,9 hPa 0,0 l/m 0 min 0 min 16 W/m 6,4 km/h (2 Bft) 97,67 %
19.05.2023 06:08 7,7 C 7,2 C 3,9 C 87 % 1025,9 hPa 0,0 l/m 0 min 0 min 16 W/m 6,4 km/h (2 Bft) 97,12 %
19.05.2023 06:12 7,7 C 7,2 C 3,9 C 87 % 1025,9 hPa 0,0 l/m 0 min 0 min 18 W/m 0,0 km/h (0 Bft) 98,18 %
19.05.2023 06:14 7,7 C 7,2 C 3,9 C 87 % 1025,9 hPa 0,0 l/m 0 min 0 min 18 W/m 3,2 km/h (1 Bft) 95,65 %
19.05.2023 06:16 7,8 C 7,2 C 3,9 C 87 % 1025,9 hPa 0,0 l/m 0 min 0 min 19 W/m 3,2 km/h (1 Bft) 95,74 %
19.05.2023 06:18 7,8 C 7,2 C 3,9 C 87 % 1025,9 hPa 0,0 l/m 0 min 0 min 19 W/m 6,4 km/h (2 Bft) 97,87 %
19.05.2023 06:20 7,8 C 7,2 C 3,9 C 87 % 1025,9 hPa 0,0 l/m 0 min 0 min 19 W/m 3,2 km/h (1 Bft) 97,87 %
19.05.2023 06:22 7,8 C 7,2 C 3,9 C 87 % 1025,9 hPa 0,0 l/m 0 min 0 min 19 W/m 9,7 km/h (2 Bft) 97,87 %
19.05.2023 06:24 7,8 C 7,2 C 3,9 C 87 % 1026,0 hPa 0,0 l/m 0 min 0 min 21 W/m 3,2 km/h (1 Bft) 95,74 %
19.05.2023 06:26 7,8 C 7,2 C 3,9 C 87 % 1026,0 hPa 0,0 l/m 0 min 0 min 21 W/m 6,4 km/h (2 Bft) 97,87 %
19.05.2023 06:28 7,8 C 7,2 C 3,9 C 87 % 1026,0 hPa 0,0 l/m 0 min 0 min 21 W/m 0,0 km/h (0 Bft) 97,83 %
19.05.2023 06:30 7,8 C 7,2 C 3,9 C 87 % 1026,0 hPa 0,0 l/m 0 min 0 min 21 W/m 3,2 km/h (1 Bft) 97,87 %
19.05.2023 06:32 7,8 C 7,2 C 3,9 C 87 % 1026,0 hPa 0,0 l/m 0 min 0 min 21 W/m 3,2 km/h (1 Bft) 93,62 %
19.05.2023 06:34 7,8 C 7,2 C 3,9 C 87 % 1025,9 hPa 0,0 l/m 0 min 0 min 21 W/m 6,4 km/h (2 Bft) 97,87 %
19.05.2023 06:36 7,8 C 7,2 C 3,9 C 88 % 1025,9 hPa 0,0 l/m 0 min 0 min 22 W/m 3,2 km/h (1 Bft) 93,62 %
19.05.2023 06:38 7,9 C 7,2 C 4,4 C 88 % 1025,9 hPa 0,0 l/m 0 min 0 min 23 W/m 3,2 km/h (1 Bft) 95,74 %
19.05.2023 06:40 7,9 C 7,2 C 4,4 C 88 % 1025,9 hPa 0,0 l/m 0 min 0 min 25 W/m 3,2 km/h (1 Bft) 97,83 %
19.05.2023 06:42 7,9 C 7,8 C 4,4 C 88 % 1025,9 hPa 0,0 l/m 0 min 0 min 26 W/m 6,4 km/h (2 Bft) 97,87 %
19.05.2023 06:44 7,9 C 7,8 C 4,4 C 88 % 1025,9 hPa 0,0 l/m 0 min 0 min 28 W/m 6,4 km/h (2 Bft) 95,74 %
19.05.2023 06:46 8,0 C 7,8 C 4,4 C 88 % 1025,9 hPa 0,0 l/m 0 min 0 min 30 W/m 3,2 km/h (1 Bft) 95,74 %
19.05.2023 06:48 8,0 C 7,8 C 4,4 C 88 % 1025,9 hPa 0,0 l/m 0 min 0 min 30 W/m 6,4 km/h (2 Bft) 97,87 %
19.05.2023 06:50 8,1 C 7,8 C 4,4 C 88 % 1026,0 hPa 0,0 l/m 0 min 0 min 31 W/m 3,2 km/h (1 Bft) 95,74 %
19.05.2023 06:52 8,1 C 7,8 C 4,4 C 87 % 1026,0 hPa 0,0 l/m 0 min 0 min 32 W/m 3,2 km/h (1 Bft) 97,87 %
19.05.2023 06:54 8,2 C 7,8 C 4,4 C 87 % 1025,9 hPa 0,0 l/m 0 min 0 min 33 W/m 12,9 km/h (3 Bft) 95,65 %
19.05.2023 06:56 8,2 C 7,8 C 4,4 C 87 % 1025,9 hPa 0,0 l/m 0 min 0 min 35 W/m 3,2 km/h (1 Bft) 95,74 %
19.05.2023 06:58 8,2 C 7,8 C 4,4 C 87 % 1026,0 hPa 0,0 l/m 0 min 0 min 37 W/m 3,2 km/h (1 Bft) 97,87 %
19.05.2023 07:00 8,2 C 7,8 C 4,4 C 87 % 1025,9 hPa 0,0 l/m 0 min 0 min 38 W/m 3,2 km/h (1 Bft) 95,74 %
19.05.2023 07:02 8,2 C 7,8 C 4,4 C 87 % 1025,9 hPa 0,0 l/m 0 min 0 min 39 W/m 6,4 km/h (2 Bft) 91,49 %
19.05.2023 07:04 8,3 C 8,3 C 4,4 C 87 % 1025,9 hPa 0,0 l/m 0 min 0 min 40 W/m 9,7 km/h (2 Bft) 100,00 %
19.05.2023 07:06 8,3 C 8,3 C 4,4 C 87 % 1025,9 hPa 0,0 l/m 0 min 0 min 40 W/m 3,2 km/h (1 Bft) 91,30 %
19.05.2023 07:08 8,4 C 8,3 C 5,0 C 87 % 1025,9 hPa 0,0 l/m 0 min 0 min 42 W/m 6,4 km/h (2 Bft) 97,87 %
19.05.2023 07:10 8,4 C 8,3 C 5,0 C 87 % 1025,9 hPa 0,0 l/m 0 min 0 min 42 W/m 3,2 km/h (1 Bft) 34,38 %
19.05.2023 07:12 8,5 C 8,3 C 5,0 C 87 % 1025,9 hPa 0,0 l/m 0 min 0 min 46 W/m 9,7 km/h (2 Bft) 95,74 %
19.05.2023 07:14 8,5 C 8,3 C 5,0 C 87 % 1025,9 hPa 0,0 l/m 0 min 0 min 47 W/m 3,2 km/h (1 Bft) 97,87 %
19.05.2023 07:16 8,6 C 8,3 C 5,0 C 87 % 1025,9 hPa 0,0 l/m 0 min 0 min 47 W/m 6,4 km/h (2 Bft) 97,87 %
19.05.2023 07:18 8,6 C 8,3 C 5,0 C 87 % 1025,9 hPa 0,0 l/m 0 min 0 min 47 W/m 3,2 km/h (1 Bft) 97,83 %
19.05.2023 07:20 8,6 C 8,3 C 5,0 C 87 % 1025,9 hPa 0,0 l/m 0 min 0 min 46 W/m 3,2 km/h (1 Bft) 97,87 %
19.05.2023 07:22 8,7 C 8,3 C 5,0 C 87 % 1025,9 hPa 0,0 l/m 0 min 0 min 44 W/m 6,4 km/h (2 Bft) 97,87 %
19.05.2023 07:24 8,7 C 8,3 C 5,0 C 87 % 1025,9 hPa 0,0 l/m 0 min 0 min 43 W/m 6,4 km/h (2 Bft) 96,36 %
19.05.2023 07:26 8,8 C 8,9 C 5,0 C 86 % 1025,9 hPa 0,0 l/m 0 min 0 min 44 W/m 3,2 km/h (1 Bft) 95,74 %
19.05.2023 07:28 8,8 C 8,9 C 5,0 C 87 % 1025,9 hPa 0,0 l/m 0 min 0 min 44 W/m 3,2 km/h (1 Bft) 97,87 %
19.05.2023 07:30 8,9 C 8,9 C 5,0 C 87 % 1025,9 hPa 0,0 l/m 0 min 0 min 45 W/m 6,4 km/h (2 Bft) 93,62 %
19.05.2023 07:32 8,9 C 8,9 C 5,6 C 86 % 1025,9 hPa 0,0 l/m 0 min 0 min 46 W/m 6,4 km/h (2 Bft) 97,87 %
19.05.2023 07:34 9,0 C 8,9 C 5,6 C 86 % 1025,9 hPa 0,0 l/m 0 min 0 min 47 W/m 9,7 km/h (2 Bft) 97,83 %
19.05.2023 07:36 9,1 C 8,9 C 5,6 C 86 % 1025,9 hPa 0,0 l/m 0 min 0 min 47 W/m 12,9 km/h (3 Bft) 97,87 %
19.05.2023 07:38 9,1 C 8,9 C 5,6 C 86 % 1025,9 hPa 0,0 l/m 0 min 0 min 49 W/m 9,7 km/h (2 Bft) 97,87 %
19.05.2023 07:40 9,2 C 9,4 C 5,6 C 86 % 1025,7 hPa 0,0 l/m 0 min 0 min 49 W/m 12,9 km/h (3 Bft) 97,87 %
19.05.2023 07:42 9,2 C 9,4 C 5,6 C 85 % 1025,8 hPa 0,0 l/m 0 min 0 min 50 W/m 12,9 km/h (3 Bft) 95,74 %
19.05.2023 07:44 9,3 C 9,4 C 5,6 C 85 % 1025,8 hPa 0,0 l/m 0 min 0 min 51 W/m 6,4 km/h (2 Bft) 100,00 %
19.05.2023 07:46 9,3 C 9,4 C 5,6 C 85 % 1025,8 hPa 0,0 l/m 0 min 0 min 53 W/m 6,4 km/h (2 Bft) 100,00 %
19.05.2023 07:48 9,4 C 9,4 C 5,6 C 85 % 1025,8 hPa 0,0 l/m 0 min 0 min 53 W/m 12,9 km/h (3 Bft) 97,87 %
19.05.2023 07:50 9,5 C 9,4 C 6,1 C 85 % 1025,8 hPa 0,0 l/m 0 min 0 min 54 W/m 12,9 km/h (3 Bft) 100,00 %
19.05.2023 07:52 9,6 C 9,4 C 6,1 C 84 % 1025,8 hPa 0,0 l/m 0 min 0 min 104 W/m 16,1 km/h (3 Bft) 100,00 %
19.05.2023 07:54 9,7 C 10,0 C 6,1 C 84 % 1025,8 hPa 0,0 l/m 2 min 0 min 247 W/m 6,4 km/h (2 Bft) 100,00 %
19.05.2023 07:56 9,8 C 10,0 C 6,1 C 84 % 1025,8 hPa 0,0 l/m 2 min 0 min 279 W/m 6,4 km/h (2 Bft) 97,87 %
19.05.2023 07:58 9,8 C 10,0 C 6,1 C 84 % 1025,8 hPa 0,0 l/m 2 min 0 min 285 W/m 9,7 km/h (2 Bft) 100,00 %
19.05.2023 08:00 9,9 C 10,0 C 6,1 C 84 % 1025,7 hPa 0,0 l/m 2 min 0 min 290 W/m 25,7 km/h (4 Bft) 100,00 %
19.05.2023 08:02 10,0 C 10,0 C 6,1 C 83 % 1025,7 hPa 0,0 l/m 2 min 0 min 299 W/m 6,4 km/h (2 Bft) 100,00 %
19.05.2023 08:04 10,1 C 10,0 C 6,1 C 83 % 1025,7 hPa 0,0 l/m 2 min 0 min 304 W/m 12,9 km/h (3 Bft) 100,00 %
19.05.2023 08:06 10,2 C 10,6 C 6,7 C 83 % 1025,7 hPa 0,0 l/m 2 min 0 min 296 W/m 12,9 km/h (3 Bft) 100,00 %
19.05.2023 08:08 10,3 C 10,6 C 6,7 C 83 % 1025,7 hPa 0,0 l/m 2 min 0 min 248 W/m 6,4 km/h (2 Bft) 100,00 %
19.05.2023 08:10 10,4 C 11,7 C 6,7 C 82 % 1025,7 hPa 0,0 l/m 2 min 0 min 237 W/m 9,7 km/h (2 Bft) 100,00 %
19.05.2023 08:12 10,5 C 11,7 C 6,7 C 82 % 1025,7 hPa 0,0 l/m 2 min 0 min 334 W/m 9,7 km/h (2 Bft) 100,00 %
19.05.2023 08:14 10,6 C 12,2 C 6,7 C 82 % 1025,7 hPa 0,0 l/m 2 min 0 min 342 W/m 12,9 km/h (3 Bft) 100,00 %
19.05.2023 08:16 10,7 C 13,9 C 6,7 C 82 % 1025,7 hPa 0,0 l/m 2 min 0 min 350 W/m 6,4 km/h (2 Bft) 97,87 %
19.05.2023 08:18 10,9 C 15,0 C 7,2 C 82 % 1025,7 hPa 0,0 l/m 2 min 0 min 358 W/m 16,1 km/h (3 Bft) 97,87 %
19.05.2023 08:20 11,1 C 15,6 C 7,2 C 81 % 1025,7 hPa 0,0 l/m 2 min 0 min 365 W/m 12,9 km/h (3 Bft) 100,00 %
19.05.2023 08:22 11,2 C 16,1 C 7,2 C 81 % 1025,7 hPa 0,0 l/m 2 min 0 min 372 W/m 16,1 km/h (3 Bft) 97,87 %
19.05.2023 08:24 11,3 C 16,1 C 7,2 C 80 % 1025,7 hPa 0,0 l/m 2 min 0 min 381 W/m 12,9 km/h (3 Bft) 100,00 %
19.05.2023 08:26 11,6 C 16,7 C 7,8 C 79 % 1025,7 hPa 0,0 l/m 2 min 0 min 387 W/m 9,7 km/h (2 Bft) 95,74 %
19.05.2023 08:28 11,8 C 17,2 C 7,8 C 79 % 1025,7 hPa 0,0 l/m 2 min 0 min 396 W/m 16,1 km/h (3 Bft) 100,00 %
19.05.2023 08:30 11,9 C 17,8 C 7,8 C 78 % 1025,7 hPa 0,0 l/m 2 min 0 min 405 W/m 9,7 km/h (2 Bft) 100,00 %
19.05.2023 08:32 12,1 C 17,8 C 7,8 C 77 % 1025,8 hPa 0,0 l/m 2 min 0 min 413 W/m 6,4 km/h (2 Bft) 97,87 %
19.05.2023 08:34 12,3 C 17,8 C 7,8 C 77 % 1025,7 hPa 0,0 l/m 2 min 0 min 422 W/m 12,9 km/h (3 Bft) 97,87 %
19.05.2023 08:36 12,4 C 17,8 C 8,3 C 76 % 1025,7 hPa 0,0 l/m 2 min 0 min 429 W/m 6,4 km/h (2 Bft) 95,74 %
19.05.2023 08:38 12,6 C 17,8 C 8,3 C 75 % 1025,7 hPa 0,0 l/m 2 min 0 min 435 W/m 9,7 km/h (2 Bft) 96,55 %
19.05.2023 08:40 12,8 C 18,3 C 8,9 C 75 % 1025,7 hPa 0,0 l/m 2 min 0 min 414 W/m 9,7 km/h (2 Bft) 95,74 %
19.05.2023 08:42 12,9 C 18,3 C 8,9 C 75 % 1025,7 hPa 0,0 l/m 2 min 0 min 365 W/m 9,7 km/h (2 Bft) 95,74 %
19.05.2023 08:44 13,1 C 18,9 C 9,4 C 74 % 1025,7 hPa 0,0 l/m 2 min 0 min 389 W/m 6,4 km/h (2 Bft) 94,29 %
19.05.2023 08:46 13,3 C 18,9 C 9,4 C 74 % 1025,7 hPa 0,0 l/m 2 min 0 min 356 W/m 16,1 km/h (3 Bft) 96,61 %
19.05.2023 08:48 13,4 C 18,3 C 9,4 C 74 % 1025,7 hPa 0,0 l/m 2 min 0 min 277 W/m 9,7 km/h (2 Bft) 94,29 %
19.05.2023 08:50 13,5 C 17,2 C 9,4 C 72 % 1025,7 hPa 0,0 l/m 2 min 0 min 255 W/m 12,9 km/h (3 Bft) 92,31 %
19.05.2023 08:52 13,5 C 17,2 C 9,4 C 72 % 1025,7 hPa 0,0 l/m 2 min 0 min 328 W/m 16,1 km/h (3 Bft) 95,65 %
19.05.2023 08:54 13,6 C 18,3 C 9,4 C 72 % 1025,7 hPa 0,0 l/m 2 min 0 min 372 W/m 9,7 km/h (2 Bft) 95,74 %
19.05.2023 08:56 13,7 C 18,9 C 10,0 C 73 % 1025,8 hPa 0,0 l/m 2 min 0 min 408 W/m 9,7 km/h (2 Bft) 93,62 %
19.05.2023 08:58 13,8 C 19,4 C 10,6 C 72 % 1025,7 hPa 0,0 l/m 2 min 0 min 431 W/m 12,9 km/h (3 Bft) 92,86 %
19.05.2023 09:00 13,9 C 20,0 C 10,6 C 72 % 1025,7 hPa 0,0 l/m 2 min 0 min 440 W/m 6,4 km/h (2 Bft) 96,15 %
19.05.2023 09:02 14,2 C 20,6 C 11,1 C 71 % 1025,7 hPa 0,0 l/m 2 min 0 min 434 W/m 12,9 km/h (3 Bft) 93,62 %
19.05.2023 09:04 14,3 C 20,0 C 11,1 C 71 % 1025,7 hPa 0,0 l/m 2 min 0 min 438 W/m 9,7 km/h (2 Bft) 95,83 %
19.05.2023 09:06 14,4 C 20,0 C 11,1 C 70 % 1025,7 hPa 0,0 l/m 2 min 0 min 440 W/m 6,4 km/h (2 Bft) 95,74 %
19.05.2023 09:08 14,6 C 20,6 C 11,1 C 69 % 1025,7 hPa 0,0 l/m 2 min 0 min 448 W/m 9,7 km/h (2 Bft) 93,18 %
19.05.2023 09:10 14,7 C 20,6 C 11,7 C 69 % 1025,7 hPa 0,0 l/m 2 min 0 min 429 W/m 9,7 km/h (2 Bft) 97,83 %
19.05.2023 09:12 14,8 C 21,1 C 11,7 C 69 % 1025,8 hPa 0,0 l/m 2 min 0 min 441 W/m 12,9 km/h (3 Bft) 95,74 %
19.05.2023 09:14 14,9 C 21,1 C 11,7 C 68 % 1025,8 hPa 0,0 l/m 2 min 0 min 495 W/m 6,4 km/h (2 Bft) 95,74 %
19.05.2023 09:16 15,1 C 21,7 C 12,2 C 68 % 1025,7 hPa 0,0 l/m 2 min 0 min 511 W/m 6,4 km/h (2 Bft) 97,87 %
19.05.2023 09:18 15,2 C 21,7 C 12,2 C 67 % 1025,7 hPa 0,0 l/m 2 min 0 min 520 W/m 6,4 km/h (2 Bft) 95,74 %
19.05.2023 09:20 15,3 C 21,7 C 12,2 C 67 % 1025,7 hPa 0,0 l/m 2 min 0 min 538 W/m 12,9 km/h (3 Bft) 100,00 %
19.05.2023 09:22 15,4 C 22,2 C 12,8 C 67 % 1025,7 hPa 0,0 l/m 2 min 0 min 543 W/m 9,7 km/h (2 Bft) 97,87 %
19.05.2023 09:24 15,6 C 21,7 C 12,8 C 66 % 1025,7 hPa 0,0 l/m 2 min 0 min 548 W/m 12,9 km/h (3 Bft) 100,00 %
19.05.2023 09:26 15,6 C 21,1 C 12,8 C 66 % 1025,7 hPa 0,0 l/m 2 min 0 min 552 W/m 9,7 km/h (2 Bft) 95,74 %
19.05.2023 09:28 15,7 C 21,7 C 12,8 C 66 % 1025,6 hPa 0,0 l/m 2 min 0 min 539 W/m 9,7 km/h (2 Bft) 100,00 %
19.05.2023 09:30 15,7 C 21,7 C 12,8 C 65 % 1025,7 hPa 0,0 l/m 2 min 0 min 475 W/m 9,7 km/h (2 Bft) 100,00 %
19.05.2023 09:32 15,8 C 22,2 C 12,8 C 65 % 1025,7 hPa 0,0 l/m 2 min 0 min 530 W/m 9,7 km/h (2 Bft) 95,65 %
19.05.2023 09:34 15,9 C 21,1 C 13,3 C 64 % 1025,6 hPa 0,0 l/m 2 min 0 min 566 W/m 12,9 km/h (3 Bft) 100,00 %
19.05.2023 09:36 16,0 C 21,7 C 13,3 C 65 % 1025,6 hPa 0,0 l/m 2 min 0 min 575 W/m 9,7 km/h (2 Bft) 100,00 %
19.05.2023 09:38 16,1 C 21,1 C 13,3 C 65 % 1025,6 hPa 0,0 l/m 2 min 0 min 568 W/m 19,3 km/h (3 Bft) 100,00 %
19.05.2023 09:40 16,0 C 21,7 C 13,3 C 64 % 1025,6 hPa 0,0 l/m 2 min 0 min 585 W/m 12,9 km/h (3 Bft) 97,87 %
19.05.2023 09:42 16,1 C 21,7 C 13,3 C 63 % 1025,6 hPa 0,0 l/m 2 min 0 min 587 W/m 16,1 km/h (3 Bft) 97,87 %
19.05.2023 09:44 16,1 C 21,1 C 13,9 C 63 % 1025,5 hPa 0,0 l/m 2 min 0 min 594 W/m 16,1 km/h (3 Bft) 100,00 %
19.05.2023 09:46 16,1 C 22,2 C 13,9 C 63 % 1025,6 hPa 0,0 l/m 2 min 0 min 605 W/m 12,9 km/h (3 Bft) 100,00 %
19.05.2023 09:48 16,2 C 22,2 C 14,4 C 63 % 1025,6 hPa 0,0 l/m 2 min 0 min 609 W/m 6,4 km/h (2 Bft) 100,00 %
19.05.2023 09:50 16,2 C 21,7 C 14,4 C 63 % 1025,6 hPa 0,0 l/m 2 min 0 min 612 W/m 12,9 km/h (3 Bft) 100,00 %
19.05.2023 09:52 16,3 C 21,1 C 14,4 C 62 % 1025,6 hPa 0,0 l/m 2 min 0 min 615 W/m 16,1 km/h (3 Bft) 100,00 %
19.05.2023 09:54 16,3 C 21,7 C 14,4 C 63 % 1025,6 hPa 0,0 l/m 2 min 0 min 609 W/m 9,7 km/h (2 Bft) 97,87 %
19.05.2023 09:56 16,4 C 22,2 C 14,4 C 63 % 1025,6 hPa 0,0 l/m 2 min 0 min 625 W/m 9,7 km/h (2 Bft) 97,87 %
19.05.2023 09:58 16,5 C 22,2 C 14,4 C 62 % 1025,6 hPa 0,0 l/m 2 min 0 min 629 W/m 12,9 km/h (3 Bft) 100,00 %
19.05.2023 10:00 16,6 C 22,2 C 15,0 C 62 % 1025,5 hPa 0,0 l/m 2 min 0 min 633 W/m 9,7 km/h (2 Bft) 100,00 %
19.05.2023 10:02 16,7 C 22,8 C 15,0 C 63 % 1025,5 hPa 0,0 l/m 2 min 0 min 636 W/m 12,9 km/h (3 Bft) 100,00 %
19.05.2023 10:04 16,7 C 22,8 C 15,0 C 63 % 1025,5 hPa 0,0 l/m 2 min 0 min 643 W/m 9,7 km/h (2 Bft) 97,87 %
19.05.2023 10:06 16,8 C 21,7 C 15,0 C 61 % 1025,5 hPa 0,0 l/m 2 min 0 min 646 W/m 19,3 km/h (3 Bft) 100,00 %
19.05.2023 10:08 16,8 C 20,6 C 15,0 C 60 % 1025,5 hPa 0,0 l/m 2 min 0 min 650 W/m 12,9 km/h (3 Bft) 100,00 %
19.05.2023 10:10 16,8 C 21,1 C 15,0 C 60 % 1025,5 hPa 0,0 l/m 2 min 0 min 654 W/m 9,7 km/h (2 Bft) 100,00 %
19.05.2023 10:12 16,9 C 20,6 C 15,0 C 61 % 1025,5 hPa 0,0 l/m 2 min 0 min 661 W/m 12,9 km/h (3 Bft) 100,00 %
19.05.2023 10:14 16,9 C 20,6 C 15,0 C 61 % 1025,5 hPa 0,0 l/m 2 min 0 min 666 W/m 16,1 km/h (3 Bft) 100,00 %
19.05.2023 10:16 17,0 C 20,6 C 15,6 C 60 % 1025,4 hPa 0,0 l/m 2 min 0 min 670 W/m 12,9 km/h (3 Bft) 97,87 %
19.05.2023 10:18 17,1 C 19,4 C 15,6 C 60 % 1025,4 hPa 0,0 l/m 2 min 0 min 675 W/m 12,9 km/h (3 Bft) 100,00 %
19.05.2023 10:20 17,1 C 18,9 C 15,6 C 60 % 1025,4 hPa 0,0 l/m 2 min 0 min 679 W/m 16,1 km/h (3 Bft) 97,87 %
19.05.2023 10:22 17,1 C 19,4 C 15,6 C 60 % 1025,4 hPa 0,0 l/m 2 min 0 min 684 W/m 16,1 km/h (3 Bft) 100,00 %
19.05.2023 10:24 17,1 C 19,4 C 15,0 C 60 % 1025,4 hPa 0,0 l/m 2 min 0 min 688 W/m 16,1 km/h (3 Bft) 100,00 %
19.05.2023 10:26 17,1 C 18,9 C 15,0 C 60 % 1025,4 hPa 0,0 l/m 2 min 0 min 694 W/m 16,1 km/h (3 Bft) 100,00 %
19.05.2023 10:28 17,2 C 19,4 C 14,4 C 61 % 1025,4 hPa 0,0 l/m 2 min 0 min 699 W/m 9,7 km/h (2 Bft) 100,00 %
19.05.2023 10:30 17,2 C 19,4 C 14,4 C 61 % 1025,3 hPa 0,0 l/m 2 min 0 min 706 W/m 16,1 km/h (3 Bft) 97,87 %
19.05.2023 10:32 17,3 C 19,4 C 14,4 C 59 % 1025,3 hPa 0,0 l/m 2 min 0 min 710 W/m 12,9 km/h (3 Bft) 97,87 %
19.05.2023 10:34 17,3 C 18,9 C 14,4 C 59 % 1025,4 hPa 0,0 l/m 2 min 0 min 713 W/m 19,3 km/h (3 Bft) 97,87 %
19.05.2023 10:36 17,3 C 18,9 C 13,9 C 59 % 1025,3 hPa 0,0 l/m 2 min 0 min 720 W/m 16,1 km/h (3 Bft) 95,74 %
19.05.2023 10:38 17,3 C 18,9 C 13,9 C 59 % 1025,3 hPa 0,0 l/m 2 min 0 min 723 W/m 19,3 km/h (3 Bft) 95,65 %
19.05.2023 10:40 17,4 C 19,4 C 14,4 C 59 % 1025,3 hPa 0,0 l/m 2 min 0 min 726 W/m 12,9 km/h (3 Bft) 97,87 %
19.05.2023 10:42 17,4 C 19,4 C 15,0 C 59 % 1025,3 hPa 0,0 l/m 2 min 0 min 732 W/m 12,9 km/h (3 Bft) 93,62 %
19.05.2023 10:44 17,6 C 19,4 C 15,0 C 58 % 1025,3 hPa 0,0 l/m 2 min 0 min 735 W/m 19,3 km/h (3 Bft) 97,87 %
19.05.2023 10:46 17,6 C 19,4 C 14,4 C 56 % 1025,2 hPa 0,0 l/m 2 min 0 min 739 W/m 19,3 km/h (3 Bft) 97,87 %
19.05.2023 10:48 17,7 C 19,4 C 14,4 C 57 % 1025,3 hPa 0,0 l/m 2 min 0 min 740 W/m 12,9 km/h (3 Bft) 97,87 %
19.05.2023 10:50 17,7 C 18,9 C 14,4 C 57 % 1025,3 hPa 0,0 l/m 2 min 0 min 748 W/m 19,3 km/h (3 Bft) 95,65 %
19.05.2023 10:52 17,7 C 19,4 C 14,4 C 58 % 1025,2 hPa 0,0 l/m 2 min 0 min 750 W/m 12,9 km/h (3 Bft) 95,74 %
19.05.2023 10:54 17,8 C 20,0 C 14,4 C 56 % 1025,2 hPa 0,0 l/m 2 min 0 min 756 W/m 22,5 km/h (4 Bft) 95,74 %
19.05.2023 10:56 17,8 C 20,0 C 14,4 C 55 % 1025,3 hPa 0,0 l/m 2 min 0 min 761 W/m 19,3 km/h (3 Bft) 97,87 %
19.05.2023 10:58 17,8 C 20,6 C 13,9 C 55 % 1025,2 hPa 0,0 l/m 2 min 0 min 767 W/m 12,9 km/h (3 Bft) 100,00 %
19.05.2023 11:00 17,8 C 21,1 C 13,9 C 56 % 1025,1 hPa 0,0 l/m 2 min 0 min 766 W/m 12,9 km/h (3 Bft) 95,74 %
19.05.2023 11:02 17,8 C 21,1 C 13,9 C 55 % 1025,2 hPa 0,0 l/m 2 min 0 min 771 W/m 19,3 km/h (3 Bft) 97,87 %
19.05.2023 11:04 17,9 C 21,7 C 13,9 C 55 % 1025,1 hPa 0,0 l/m 2 min 0 min 784 W/m 16,1 km/h (3 Bft) 95,65 %
19.05.2023 11:06 17,9 C 21,7 C 13,9 C 55 % 1025,1 hPa 0,0 l/m 2 min 0 min 780 W/m 16,1 km/h (3 Bft) 100,00 %
19.05.2023 11:08 17,9 C 21,7 C 13,9 C 54 % 1025,1 hPa 0,0 l/m 2 min 0 min 786 W/m 12,9 km/h (3 Bft) 97,87 %
19.05.2023 11:10 18,0 C 21,1 C 13,9 C 54 % 1025,1 hPa 0,0 l/m 2 min 0 min 791 W/m 16,1 km/h (3 Bft) 95,74 %
19.05.2023 11:12 18,1 C 21,1 C 13,9 C 55 % 1025,1 hPa 0,0 l/m 2 min 0 min 793 W/m 19,3 km/h (3 Bft) 97,87 %
19.05.2023 11:14 18,2 C 21,7 C 13,9 C 55 % 1025,0 hPa 0,0 l/m 2 min 0 min 797 W/m 9,7 km/h (2 Bft) 97,87 %
19.05.2023 11:16 18,2 C 21,7 C 14,4 C 55 % 1025,0 hPa 0,0 l/m 2 min 0 min 799 W/m 9,7 km/h (2 Bft) 97,83 %
19.05.2023 11:18 18,3 C 21,1 C 14,4 C 54 % 1025,0 hPa 0,0 l/m 2 min 0 min 803 W/m 12,9 km/h (3 Bft) 97,87 %
19.05.2023 11:20 18,4 C 21,1 C 14,4 C 55 % 1025,0 hPa 0,0 l/m 2 min 0 min 808 W/m 22,5 km/h (4 Bft) 95,74 %
19.05.2023 11:22 18,4 C 22,2 C 14,4 C 54 % 1025,0 hPa 0,0 l/m 2 min 0 min 810 W/m 12,9 km/h (3 Bft) 97,87 %
19.05.2023 11:24 18,5 C 22,8 C 14,4 C 55 % 1025,0 hPa 0,0 l/m 2 min 0 min 813 W/m 16,1 km/h (3 Bft) 97,87 %
19.05.2023 11:26 18,6 C 23,3 C 14,4 C 54 % 1025,0 hPa 0,0 l/m 2 min 0 min 817 W/m 9,7 km/h (2 Bft) 97,87 %
19.05.2023 11:28 18,7 C 23,3 C 14,4 C 53 % 1025,0 hPa 0,0 l/m 2 min 0 min 822 W/m 12,9 km/h (3 Bft) 97,87 %
19.05.2023 11:30 18,7 C 23,3 C 14,4 C 53 % 1025,0 hPa 0,0 l/m 2 min 0 min 825 W/m 19,3 km/h (3 Bft) 97,83 %
19.05.2023 11:32 18,7 C 23,3 C 14,4 C 53 % 1024,9 hPa 0,0 l/m 2 min 0 min 828 W/m 16,1 km/h (3 Bft) 97,87 %
19.05.2023 11:34 18,7 C 23,3 C 14,4 C 52 % 1024,9 hPa 0,0 l/m 2 min 0 min 832 W/m 12,9 km/h (3 Bft) 97,87 %
19.05.2023 11:36 18,7 C 23,3 C 15,0 C 52 % 1025,0 hPa 0,0 l/m 2 min 0 min 838 W/m 16,1 km/h (3 Bft) 97,87 %
19.05.2023 11:38 18,7 C 24,4 C 15,0 C 53 % 1024,9 hPa 0,0 l/m 2 min 0 min 840 W/m 12,9 km/h (3 Bft) 97,87 %
19.05.2023 11:40 18,8 C 25,0 C 15,0 C 52 % 1024,9 hPa 0,0 l/m 2 min 0 min 841 W/m 12,9 km/h (3 Bft) 97,87 %
19.05.2023 11:42 18,8 C 25,0 C 15,6 C 51 % 1024,9 hPa 0,0 l/m 2 min 0 min 847 W/m 16,1 km/h (3 Bft) 97,83 %
19.05.2023 11:44 18,8 C 25,0 C 16,1 C 51 % 1024,8 hPa 0,0 l/m 2 min 0 min 848 W/m 12,9 km/h (3 Bft) 97,87 %
19.05.2023 11:46 18,8 C 26,1 C 16,1 C 52 % 1024,8 hPa 0,0 l/m 2 min 0 min 854 W/m 12,9 km/h (3 Bft) 97,87 %
19.05.2023 11:48 18,9 C 25,0 C 15,6 C 52 % 1024,8 hPa 0,0 l/m 2 min 0 min 855 W/m 22,5 km/h (4 Bft) 97,87 %
19.05.2023 11:50 18,9 C 25,0 C 15,6 C 51 % 1024,7 hPa 0,0 l/m 2 min 0 min 856 W/m 16,1 km/h (3 Bft) 93,62 %
19.05.2023 11:52 19,0 C 24,4 C 15,6 C 51 % 1024,7 hPa 0,0 l/m 2 min 0 min 858 W/m 19,3 km/h (3 Bft) 95,74 %
19.05.2023 11:54 19,1 C 24,4 C 15,6 C 52 % 1024,7 hPa 0,0 l/m 2 min 0 min 861 W/m 16,1 km/h (3 Bft) 100,00 %
19.05.2023 11:56 19,1 C 25,0 C 15,6 C 52 % 1024,7 hPa 0,0 l/m 2 min 0 min 865 W/m 9,7 km/h (2 Bft) 97,83 %
19.05.2023 11:58 19,1 C 24,4 C 15,0 C 52 % 1024,7 hPa 0,0 l/m 2 min 0 min 867 W/m 12,9 km/h (3 Bft) 95,74 %
19.05.2023 12:00 19,2 C 25,0 C 15,6 C 52 % 1024,7 hPa 0,0 l/m 2 min 0 min 867 W/m 16,1 km/h (3 Bft) 97,87 %
19.05.2023 12:02 19,2 C 25,0 C 15,0 C 51 % 1024,7 hPa 0,0 l/m 2 min 0 min 875 W/m 12,9 km/h (3 Bft) 100,00 %
19.05.2023 12:04 19,3 C 25,6 C 15,6 C 51 % 1024,6 hPa 0,0 l/m 2 min 0 min 876 W/m 22,5 km/h (4 Bft) 97,87 %
19.05.2023 12:07 19,4 C 25,6 C 16,1 C 52 % 1024,7 hPa 0,0 l/m 3 min 0 min 880 W/m 12,9 km/h (3 Bft) 97,30 %
19.05.2023 12:08 19,4 C 25,6 C 16,7 C 51 % 1024,7 hPa 0,0 l/m 1 min 0 min 879 W/m 22,5 km/h (4 Bft) 100,00 %
19.05.2023 12:12 19,6 C 26,1 C 17,8 C 52 % 1024,7 hPa 0,0 l/m 4 min 0 min 884 W/m 9,7 km/h (2 Bft) 100,00 %
19.05.2023 12:14 19,6 C 26,1 C 18,9 C 51 % 1024,7 hPa 0,0 l/m 2 min 0 min 887 W/m 16,1 km/h (3 Bft) 97,87 %
19.05.2023 12:16 19,7 C 26,7 C 19,4 C 52 % 1024,7 hPa 0,0 l/m 2 min 0 min 890 W/m 6,4 km/h (2 Bft) 97,87 %
19.05.2023 12:18 19,7 C 25,6 C 20,0 C 51 % 1024,8 hPa 0,0 l/m 2 min 0 min 888 W/m 12,9 km/h (3 Bft) 100,00 %
19.05.2023 12:20 19,7 C 24,4 C 20,6 C 50 % 1024,8 hPa 0,0 l/m 2 min 0 min 884 W/m 19,3 km/h (3 Bft) 100,00 %
19.05.2023 12:22 19,6 C 25,0 C 20,0 C 50 % 1024,8 hPa 0,0 l/m 2 min 0 min 885 W/m 19,3 km/h (3 Bft) 97,87 %
19.05.2023 12:24 19,6 C 24,4 C 20,6 C 50 % 1024,8 hPa 0,0 l/m 2 min 0 min 893 W/m 25,7 km/h (4 Bft) 100,00 %
19.05.2023 12:26 19,5 C 25,6 C 20,6 C 51 % 1024,7 hPa 0,0 l/m 2 min 0 min 895 W/m 9,7 km/h (2 Bft) 97,87 %
19.05.2023 12:28 19,6 C 26,1 C 20,6 C 51 % 1024,6 hPa 0,0 l/m 2 min 0 min 902 W/m 9,7 km/h (2 Bft) 100,00 %
19.05.2023 12:30 19,7 C 26,1 C 21,1 C 51 % 1024,6 hPa 0,0 l/m 2 min 0 min 897 W/m 12,9 km/h (3 Bft) 95,74 %
19.05.2023 12:32 19,8 C 26,7 C 21,1 C 53 % 1024,7 hPa 0,0 l/m 2 min 0 min 894 W/m 9,7 km/h (2 Bft) 95,74 %
19.05.2023 12:34 19,8 C 26,7 C 20,6 C 50 % 1024,7 hPa 0,0 l/m 2 min 0 min 906 W/m 16,1 km/h (3 Bft) 95,74 %
19.05.2023 12:36 19,8 C 26,1 C 21,1 C 50 % 1024,6 hPa 0,0 l/m 2 min 0 min 909 W/m 16,1 km/h (3 Bft) 95,74 %
19.05.2023 12:38 19,8 C 25,6 C 21,1 C 49 % 1024,6 hPa 0,0 l/m 2 min 0 min 909 W/m 9,7 km/h (2 Bft) 95,65 %
19.05.2023 12:40 19,8 C 25,6 C 22,2 C 48 % 1024,6 hPa 0,0 l/m 2 min 0 min 910 W/m 12,9 km/h (3 Bft) 95,74 %
19.05.2023 12:42 19,9 C 26,7 C 22,2 C 51 % 1024,6 hPa 0,0 l/m 2 min 0 min 911 W/m 6,4 km/h (2 Bft) 95,74 %
19.05.2023 12:44 20,1 C 26,7 C 21,7 C 50 % 1024,5 hPa 0,0 l/m 2 min 0 min 909 W/m 19,3 km/h (3 Bft) 93,62 %
19.05.2023 12:46 20,1 C 26,1 C 22,2 C 50 % 1024,5 hPa 0,0 l/m 2 min 0 min 909 W/m 16,1 km/h (3 Bft) 95,74 %
19.05.2023 12:48 20,1 C 26,1 C 22,8 C 51 % 1024,6 hPa 0,0 l/m 2 min 0 min 913 W/m 12,9 km/h (3 Bft) 95,74 %
19.05.2023 12:50 20,2 C 26,7 C 22,2 C 50 % 1024,5 hPa 0,0 l/m 2 min 0 min 915 W/m 9,7 km/h (2 Bft) 95,74 %
19.05.2023 12:52 20,3 C 26,1 C 22,2 C 50 % 1024,6 hPa 0,0 l/m 2 min 0 min 912 W/m 19,3 km/h (3 Bft) 93,48 %
19.05.2023 12:54 20,3 C 26,7 C 21,7 C 50 % 1024,4 hPa 0,0 l/m 2 min 0 min 918 W/m 16,1 km/h (3 Bft) 95,74 %
19.05.2023 12:56 20,4 C 26,1 C 21,7 C 49 % 1024,5 hPa 0,0 l/m 2 min 0 min 929 W/m 19,3 km/h (3 Bft) 95,74 %
19.05.2023 12:58 20,4 C 27,2 C 21,7 C 51 % 1024,5 hPa 0,0 l/m 2 min 0 min 932 W/m 12,9 km/h (3 Bft) 95,74 %
19.05.2023 13:00 20,6 C 27,2 C 21,7 C 50 % 1024,4 hPa 0,0 l/m 2 min 0 min 925 W/m 12,9 km/h (3 Bft) 91,49 %
19.05.2023 13:02 20,6 C 27,2 C 21,7 C 49 % 1024,4 hPa 0,0 l/m 2 min 0 min 921 W/m 9,7 km/h (2 Bft) 95,74 %
19.05.2023 13:04 20,7 C 26,7 C 21,1 C 48 % 1024,5 hPa 0,0 l/m 2 min 0 min 925 W/m 16,1 km/h (3 Bft) 95,83 %
19.05.2023 13:06 20,7 C 26,7 C 19,4 C 47 % 1024,5 hPa 0,0 l/m 2 min 0 min 920 W/m 12,9 km/h (3 Bft) 98,31 %
19.05.2023 13:08 20,7 C 27,2 C 18,3 C 47 % 1024,4 hPa 0,0 l/m 2 min 0 min 917 W/m 9,7 km/h (2 Bft) 97,14 %
19.05.2023 13:10 20,7 C 26,7 C 17,8 C 47 % 1024,4 hPa 0,0 l/m 2 min 0 min 921 W/m 9,7 km/h (2 Bft) 93,62 %
19.05.2023 13:12 20,7 C 27,2 C 17,2 C 49 % 1024,4 hPa 0,0 l/m 2 min 0 min 920 W/m 16,1 km/h (3 Bft) 97,87 %
19.05.2023 13:14 20,7 C 27,8 C 17,2 C 47 % 1024,4 hPa 0,0 l/m 2 min 0 min 925 W/m 12,9 km/h (3 Bft) 97,87 %
19.05.2023 13:16 20,8 C 27,8 C 17,2 C 47 % 1024,3 hPa 0,0 l/m 2 min 0 min 920 W/m 9,7 km/h (2 Bft) 97,83 %
19.05.2023 13:18 20,8 C 27,2 C 17,8 C 48 % 1024,4 hPa 0,0 l/m 2 min 0 min 921 W/m 12,9 km/h (3 Bft) 97,87 %
19.05.2023 13:20 20,7 C 27,2 C 17,8 C 47 % 1024,3 hPa 0,0 l/m 2 min 0 min 925 W/m 16,1 km/h (3 Bft) 97,87 %
19.05.2023 13:22 20,7 C 27,8 C 18,3 C 47 % 1024,3 hPa 0,0 l/m 2 min 0 min 925 W/m 12,9 km/h (3 Bft) 97,87 %
19.05.2023 13:24 20,7 C 27,8 C 18,9 C 48 % 1024,3 hPa 0,0 l/m 2 min 0 min 931 W/m 12,9 km/h (3 Bft) 95,74 %
19.05.2023 13:26 20,7 C 27,8 C 20,0 C 47 % 1024,3 hPa 0,0 l/m 2 min 0 min 926 W/m 9,7 km/h (2 Bft) 97,87 %
19.05.2023 13:28 20,7 C 27,8 C 20,6 C 48 % 1024,3 hPa 0,0 l/m 2 min 0 min 928 W/m 16,1 km/h (3 Bft) 97,83 %
19.05.2023 13:30 20,7 C 26,7 C 21,7 C 46 % 1024,4 hPa 0,0 l/m 2 min 0 min 927 W/m 19,3 km/h (3 Bft) 95,74 %
19.05.2023 13:32 20,6 C 26,1 C 21,7 C 47 % 1024,3 hPa 0,0 l/m 2 min 0 min 930 W/m 29,0 km/h (5 Bft) 97,87 %
19.05.2023 13:34 20,5 C 26,7 C 21,1 C 47 % 1024,3 hPa 0,0 l/m 2 min 0 min 929 W/m 19,3 km/h (3 Bft) 97,87 %
19.05.2023 13:36 20,4 C 27,2 C 21,7 C 49 % 1024,4 hPa 0,0 l/m 2 min 0 min 929 W/m 12,9 km/h (3 Bft) 97,87 %
19.05.2023 13:38 20,4 C 26,7 C 22,2 C 46 % 1024,3 hPa 0,0 l/m 2 min 0 min 931 W/m 16,1 km/h (3 Bft) 97,87 %
19.05.2023 13:40 20,4 C 26,7 C 22,8 C 48 % 1024,3 hPa 0,0 l/m 2 min 0 min 928 W/m 12,9 km/h (3 Bft) 95,74 %
19.05.2023 13:42 20,4 C 26,7 C 22,8 C 46 % 1024,3 hPa 0,0 l/m 2 min 0 min 926 W/m 9,7 km/h (2 Bft) 97,83 %
19.05.2023 13:44 20,5 C 26,7 C 22,8 C 47 % 1024,3 hPa 0,0 l/m 2 min 0 min 924 W/m 12,9 km/h (3 Bft) 97,87 %
19.05.2023 13:46 20,6 C 28,3 C 21,7 C 46 % 1024,1 hPa 0,0 l/m 2 min 0 min 923 W/m 9,7 km/h (2 Bft) 95,74 %
19.05.2023 13:48 20,7 C 27,8 C 20,6 C 47 % 1024,2 hPa 0,0 l/m 2 min 0 min 926 W/m 12,9 km/h (3 Bft) 95,74 %
19.05.2023 13:50 20,7 C 27,8 C 19,4 C 47 % 1024,2 hPa 0,0 l/m 2 min 0 min 926 W/m 12,9 km/h (3 Bft) 97,87 %
19.05.2023 13:52 20,7 C 28,3 C 18,3 C 47 % 1024,1 hPa 0,0 l/m 2 min 0 min 924 W/m 9,7 km/h (2 Bft) 97,87 %
19.05.2023 13:54 20,7 C 28,3 C 17,8 C 48 % 1024,1 hPa 0,0 l/m 2 min 0 min 924 W/m 12,9 km/h (3 Bft) 97,83 %
19.05.2023 13:56 20,8 C 28,3 C 17,2 C 47 % 1024,1 hPa 0,0 l/m 2 min 0 min 922 W/m 22,5 km/h (4 Bft) 95,74 %
19.05.2023 13:58 20,7 C 27,8 C 16,7 C 46 % 1024,1 hPa 0,0 l/m 2 min 0 min 921 W/m 16,1 km/h (3 Bft) 97,87 %
19.05.2023 14:00 20,8 C 28,3 C 16,7 C 48 % 1024,1 hPa 0,0 l/m 2 min 0 min 925 W/m 9,7 km/h (2 Bft) 97,87 %
19.05.2023 14:02 20,9 C 28,9 C 16,7 C 49 % 1024,1 hPa 0,0 l/m 2 min 0 min 924 W/m 16,1 km/h (3 Bft) 95,74 %
19.05.2023 14:04 21,0 C 28,9 C 16,7 C 48 % 1024,0 hPa 0,0 l/m 2 min 0 min 927 W/m 12,9 km/h (3 Bft) 93,88 %
19.05.2023 14:06 21,1 C 28,9 C 16,7 C 48 % 1024,1 hPa 0,0 l/m 2 min 0 min 924 W/m 16,1 km/h (3 Bft) 95,65 %
19.05.2023 14:08 21,1 C 29,4 C 16,1 C 46 % 1023,9 hPa 0,0 l/m 2 min 0 min 919 W/m 9,7 km/h (2 Bft) 97,87 %
19.05.2023 14:10 21,2 C 30,0 C 16,1 C 46 % 1023,9 hPa 0,0 l/m 2 min 0 min 921 W/m 12,9 km/h (3 Bft) 97,87 %
19.05.2023 14:12 21,3 C 29,4 C 16,7 C 46 % 1023,9 hPa 0,0 l/m 2 min 0 min 919 W/m 12,9 km/h (3 Bft) 97,87 %
19.05.2023 14:14 21,3 C 30,0 C 16,7 C 46 % 1023,8 hPa 0,0 l/m 2 min 0 min 916 W/m 19,3 km/h (3 Bft) 97,87 %
19.05.2023 14:16 21,4 C 30,6 C 16,7 C 48 % 1023,8 hPa 0,0 l/m 2 min 0 min 917 W/m 12,9 km/h (3 Bft) 97,87 %
19.05.2023 14:18 21,5 C 31,1 C 16,7 C 49 % 1023,9 hPa 0,0 l/m 2 min 0 min 914 W/m 16,1 km/h (3 Bft) 97,87 %
19.05.2023 14:20 21,5 C 30,6 C 16,7 C 47 % 1023,9 hPa 0,0 l/m 2 min 0 min 912 W/m 12,9 km/h (3 Bft) 95,65 %
19.05.2023 14:22 21,6 C 29,4 C 16,7 C 46 % 1023,9 hPa 0,0 l/m 2 min 0 min 914 W/m 12,9 km/h (3 Bft) 97,87 %
19.05.2023 14:24 21,5 C 28,3 C 16,7 C 46 % 1023,9 hPa 0,0 l/m 2 min 0 min 911 W/m 12,9 km/h (3 Bft) 95,74 %
19.05.2023 14:26 21,6 C 28,9 C 17,2 C 47 % 1023,8 hPa 0,0 l/m 2 min 0 min 904 W/m 12,9 km/h (3 Bft) 97,87 %
19.05.2023 14:28 21,6 C 29,4 C 16,7 C 48 % 1023,8 hPa 0,0 l/m 2 min 0 min 903 W/m 12,9 km/h (3 Bft) 97,87 %
19.05.2023 14:30 21,7 C 30,0 C 16,7 C 47 % 1023,8 hPa 0,0 l/m 2 min 0 min 904 W/m 6,4 km/h (2 Bft) 97,87 %
19.05.2023 14:32 21,8 C 28,9 C 16,7 C 45 % 1023,8 hPa 0,0 l/m 2 min 0 min 905 W/m 16,1 km/h (3 Bft) 95,74 %
19.05.2023 14:34 21,8 C 28,9 C 16,7 C 46 % 1023,8 hPa 0,0 l/m 2 min 0 min 907 W/m 9,7 km/h (2 Bft) 97,83 %
19.05.2023 14:36 21,8 C 29,4 C 16,7 C 46 % 1023,8 hPa 0,0 l/m 2 min 0 min 905 W/m 9,7 km/h (2 Bft) 95,74 %
19.05.2023 14:38 21,9 C 28,3 C 16,7 C 46 % 1023,7 hPa 0,0 l/m 2 min 0 min 903 W/m 38,6 km/h (5 Bft) 97,87 %
19.05.2023 14:40 21,8 C 27,2 C 16,1 C 44 % 1023,7 hPa 0,0 l/m 2 min 0 min 903 W/m 22,5 km/h (4 Bft) 97,87 %
19.05.2023 14:42 21,7 C 27,8 C 16,1 C 45 % 1023,7 hPa 0,0 l/m 2 min 0 min 898 W/m 12,9 km/h (3 Bft) 97,87 %
19.05.2023 14:44 21,7 C 28,3 C 16,1 C 45 % 1023,7 hPa 0,0 l/m 2 min 0 min 896 W/m 12,9 km/h (3 Bft) 97,87 %
19.05.2023 14:46 21,7 C 28,9 C 16,1 C 47 % 1023,7 hPa 0,0 l/m 2 min 0 min 901 W/m 16,1 km/h (3 Bft) 97,83 %
19.05.2023 14:48 21,7 C 28,9 C 16,1 C 45 % 1023,7 hPa 0,0 l/m 2 min 0 min 894 W/m 16,1 km/h (3 Bft) 97,87 %
19.05.2023 14:50 21,7 C 28,9 C 16,1 C 46 % 1023,6 hPa 0,0 l/m 2 min 0 min 890 W/m 22,5 km/h (4 Bft) 97,87 %
19.05.2023 14:52 21,7 C 29,4 C 16,1 C 47 % 1023,6 hPa 0,0 l/m 2 min 0 min 888 W/m 9,7 km/h (2 Bft) 97,87 %
19.05.2023 14:54 21,7 C 29,4 C 16,1 C 47 % 1023,6 hPa 0,0 l/m 2 min 0 min 887 W/m 9,7 km/h (2 Bft) 97,87 %
19.05.2023 14:56 21,7 C 28,9 C 16,1 C 45 % 1023,6 hPa 0,0 l/m 2 min 0 min 883 W/m 9,7 km/h (2 Bft) 97,87 %
19.05.2023 14:58 21,7 C 28,3 C 16,1 C 47 % 1023,6 hPa 0,0 l/m 2 min 0 min 879 W/m 12,9 km/h (3 Bft) 97,87 %
19.05.2023 15:00 21,8 C 29,4 C 16,1 C 48 % 1023,5 hPa 0,0 l/m 2 min 0 min 874 W/m 6,4 km/h (2 Bft) 97,83 %
19.05.2023 15:02 21,9 C 29,4 C 16,7 C 48 % 1023,5 hPa 0,0 l/m 2 min 0 min 876 W/m 9,7 km/h (2 Bft) 97,87 %
19.05.2023 15:04 21,8 C 28,3 C 16,1 C 45 % 1023,6 hPa 0,0 l/m 2 min 0 min 877 W/m 12,9 km/h (3 Bft) 97,92 %
19.05.2023 15:06 21,8 C 28,3 C 16,1 C 46 % 1023,5 hPa 0,0 l/m 2 min 0 min 875 W/m 12,9 km/h (3 Bft) 100,00 %
19.05.2023 15:08 21,8 C 27,8 C 16,1 C 47 % 1023,6 hPa 0,0 l/m 2 min 0 min 870 W/m 16,1 km/h (3 Bft) 100,00 %
19.05.2023 15:10 21,8 C 27,8 C 16,1 C 46 % 1023,6 hPa 0,0 l/m 2 min 0 min 865 W/m 12,9 km/h (3 Bft) 97,87 %
19.05.2023 15:12 21,8 C 28,9 C 16,7 C 47 % 1023,5 hPa 0,0 l/m 2 min 0 min 868 W/m 12,9 km/h (3 Bft) 100,00 %
19.05.2023 15:14 21,8 C 28,9 C 16,7 C 46 % 1023,5 hPa 0,0 l/m 2 min 0 min 866 W/m 12,9 km/h (3 Bft) 100,00 %
19.05.2023 15:16 21,8 C 28,3 C 16,1 C 46 % 1023,6 hPa 0,0 l/m 2 min 0 min 860 W/m 12,9 km/h (3 Bft) 100,00 %
19.05.2023 15:18 21,8 C 28,3 C 16,7 C 47 % 1023,5 hPa 0,0 l/m 2 min 0 min 859 W/m 12,9 km/h (3 Bft) 97,87 %
19.05.2023 15:20 21,7 C 27,2 C 16,1 C 45 % 1023,5 hPa 0,0 l/m 2 min 0 min 856 W/m 16,1 km/h (3 Bft) 100,00 %
19.05.2023 15:22 21,7 C 28,3 C 16,1 C 46 % 1023,5 hPa 0,0 l/m 2 min 0 min 849 W/m 12,9 km/h (3 Bft) 97,87 %
19.05.2023 15:24 21,6 C 28,3 C 16,7 C 46 % 1023,4 hPa 0,0 l/m 2 min 0 min 852 W/m 12,9 km/h (3 Bft) 97,83 %
19.05.2023 15:26 21,7 C 27,8 C 16,7 C 46 % 1023,4 hPa 0,0 l/m 2 min 0 min 846 W/m 12,9 km/h (3 Bft) 100,00 %
19.05.2023 15:28 21,8 C 28,9 C 16,7 C 47 % 1023,4 hPa 0,0 l/m 2 min 0 min 823 W/m 9,7 km/h (2 Bft) 100,00 %
19.05.2023 15:30 21,8 C 27,8 C 16,7 C 47 % 1023,4 hPa 0,0 l/m 2 min 0 min 841 W/m 12,9 km/h (3 Bft) 100,00 %
19.05.2023 15:32 21,8 C 27,2 C 16,7 C 45 % 1023,5 hPa 0,0 l/m 2 min 0 min 842 W/m 19,3 km/h (3 Bft) 100,00 %
19.05.2023 15:34 21,9 C 27,2 C 16,7 C 45 % 1023,4 hPa 0,0 l/m 2 min 0 min 835 W/m 19,3 km/h (3 Bft) 100,00 %
19.05.2023 15:36 21,8 C 27,8 C 16,7 C 45 % 1023,5 hPa 0,0 l/m 2 min 0 min 827 W/m 12,9 km/h (3 Bft) 100,00 %
19.05.2023 15:38 21,8 C 27,8 C 16,7 C 45 % 1023,4 hPa 0,0 l/m 2 min 0 min 829 W/m 12,9 km/h (3 Bft) 100,00 %
19.05.2023 15:40 21,8 C 27,8 C 16,7 C 45 % 1023,4 hPa 0,0 l/m 2 min 0 min 826 W/m 12,9 km/h (3 Bft) 100,00 %
19.05.2023 15:42 21,9 C 28,3 C 16,7 C 46 % 1023,4 hPa 0,0 l/m 2 min 0 min 823 W/m 9,7 km/h (2 Bft) 100,00 %
19.05.2023 15:44 22,0 C 27,2 C 16,7 C 47 % 1023,4 hPa 0,0 l/m 2 min 0 min 821 W/m 19,3 km/h (3 Bft) 100,00 %
19.05.2023 15:46 21,9 C 27,2 C 16,7 C 46 % 1023,3 hPa 0,0 l/m 2 min 0 min 816 W/m 12,9 km/h (3 Bft) 100,00 %
19.05.2023 15:48 21,8 C 26,7 C 16,1 C 45 % 1023,2 hPa 0,0 l/m 2 min 0 min 811 W/m 19,3 km/h (3 Bft) 100,00 %
19.05.2023 15:50 21,8 C 26,1 C 16,1 C 45 % 1023,2 hPa 0,0 l/m 2 min 0 min 806 W/m 19,3 km/h (3 Bft) 100,00 %
19.05.2023 15:52 21,7 C 26,7 C 16,1 C 47 % 1023,2 hPa 0,0 l/m 2 min 0 min 802 W/m 9,7 km/h (2 Bft) 100,00 %
19.05.2023 15:54 21,8 C 27,8 C 16,7 C 47 % 1023,2 hPa 0,0 l/m 2 min 0 min 802 W/m 9,7 km/h (2 Bft) 100,00 %
19.05.2023 15:56 21,9 C 28,3 C 16,7 C 48 % 1023,2 hPa 0,0 l/m 2 min 0 min 800 W/m 6,4 km/h (2 Bft) 100,00 %
19.05.2023 15:58 22,0 C 27,8 C 16,7 C 47 % 1023,2 hPa 0,0 l/m 2 min 0 min 797 W/m 19,3 km/h (3 Bft) 97,87 %
19.05.2023 16:00 22,1 C 27,8 C 16,7 C 47 % 1023,1 hPa 0,0 l/m 2 min 0 min 803 W/m 9,7 km/h (2 Bft) 100,00 %
19.05.2023 16:02 22,1 C 27,8 C 16,7 C 45 % 1023,1 hPa 0,0 l/m 2 min 0 min 798 W/m 12,9 km/h (3 Bft) 100,00 %
19.05.2023 16:04 22,1 C 27,2 C 16,7 C 45 % 1023,0 hPa 0,0 l/m 2 min 0 min 795 W/m 16,1 km/h (3 Bft) 97,96 %
19.05.2023 16:06 22,1 C 26,7 C 16,7 C 46 % 1023,0 hPa 0,0 l/m 2 min 0 min 779 W/m 12,9 km/h (3 Bft) 100,00 %
19.05.2023 16:08 22,1 C 26,7 C 16,7 C 47 % 1023,1 hPa 0,0 l/m 2 min 0 min 771 W/m 9,7 km/h (2 Bft) 97,14 %
19.05.2023 16:10 22,1 C 26,1 C 16,7 C 45 % 1023,1 hPa 0,0 l/m 2 min 0 min 760 W/m 16,1 km/h (3 Bft) 97,87 %
19.05.2023 16:12 22,0 C 26,7 C 16,7 C 47 % 1023,1 hPa 0,0 l/m 2 min 0 min 755 W/m 12,9 km/h (3 Bft) 100,00 %
19.05.2023 16:14 22,0 C 26,7 C 16,7 C 46 % 1023,1 hPa 0,0 l/m 2 min 0 min 760 W/m 16,1 km/h (3 Bft) 100,00 %
19.05.2023 16:16 21,9 C 27,2 C 16,7 C 46 % 1023,1 hPa 0,0 l/m 2 min 0 min 756 W/m 12,9 km/h (3 Bft) 95,74 %
19.05.2023 16:18 21,9 C 27,2 C 17,2 C 47 % 1023,1 hPa 0,0 l/m 2 min 0 min 756 W/m 12,9 km/h (3 Bft) 91,49 %
19.05.2023 16:20 21,9 C 27,8 C 17,2 C 46 % 1023,1 hPa 0,0 l/m 2 min 0 min 753 W/m 12,9 km/h (3 Bft) 95,65 %
19.05.2023 16:22 21,9 C 27,2 C 17,2 C 46 % 1023,0 hPa 0,0 l/m 2 min 0 min 743 W/m 9,7 km/h (2 Bft) 95,74 %
19.05.2023 16:24 21,9 C 27,2 C 17,2 C 48 % 1023,0 hPa 0,0 l/m 2 min 0 min 737 W/m 9,7 km/h (2 Bft) 93,62 %
19.05.2023 16:26 21,9 C 27,8 C 17,2 C 47 % 1023,0 hPa 0,0 l/m 2 min 0 min 738 W/m 9,7 km/h (2 Bft) 91,49 %
19.05.2023 16:28 21,9 C 27,2 C 17,2 C 47 % 1023,0 hPa 0,0 l/m 2 min 0 min 735 W/m 19,3 km/h (3 Bft) 91,49 %
19.05.2023 16:30 22,0 C 27,2 C 17,2 C 47 % 1023,0 hPa 0,0 l/m 2 min 0 min 729 W/m 16,1 km/h (3 Bft) 95,74 %
19.05.2023 16:32 22,0 C 27,2 C 17,2 C 47 % 1023,1 hPa 0,0 l/m 2 min 0 min 722 W/m 16,1 km/h (3 Bft) 93,62 %
19.05.2023 16:34 21,9 C 27,2 C 17,2 C 46 % 1023,1 hPa 0,0 l/m 2 min 0 min 724 W/m 12,9 km/h (3 Bft) 93,48 %
19.05.2023 16:36 22,0 C 27,8 C 17,2 C 47 % 1023,0 hPa 0,0 l/m 2 min 0 min 721 W/m 12,9 km/h (3 Bft) 93,62 %
19.05.2023 16:38 22,0 C 27,2 C 17,2 C 46 % 1023,0 hPa 0,0 l/m 2 min 0 min 717 W/m 16,1 km/h (3 Bft) 91,49 %
19.05.2023 16:40 21,9 C 27,8 C 17,2 C 46 % 1023,1 hPa 0,0 l/m 2 min 0 min 710 W/m 9,7 km/h (2 Bft) 91,49 %
19.05.2023 16:42 21,9 C 27,8 C 17,2 C 46 % 1023,0 hPa 0,0 l/m 2 min 0 min 698 W/m 12,9 km/h (3 Bft) 89,36 %
19.05.2023 16:44 21,9 C 27,8 C 17,8 C 48 % 1023,1 hPa 0,0 l/m 2 min 0 min 692 W/m 16,1 km/h (3 Bft) 91,49 %
19.05.2023 16:46 21,9 C 27,2 C 17,8 C 49 % 1023,1 hPa 0,0 l/m 2 min 0 min 693 W/m 12,9 km/h (3 Bft) 93,48 %
19.05.2023 16:48 21,9 C 27,2 C 17,8 C 47 % 1023,0 hPa 0,0 l/m 2 min 0 min 683 W/m 9,7 km/h (2 Bft) 91,49 %
19.05.2023 16:50 22,0 C 27,2 C 17,8 C 47 % 1023,0 hPa 0,0 l/m 2 min 0 min 677 W/m 12,9 km/h (3 Bft) 93,62 %
19.05.2023 16:52 22,1 C 26,7 C 17,8 C 47 % 1022,8 hPa 0,0 l/m 2 min 0 min 681 W/m 12,9 km/h (3 Bft) 93,62 %
19.05.2023 16:54 22,0 C 26,7 C 17,8 C 46 % 1022,9 hPa 0,0 l/m 2 min 0 min 681 W/m 16,1 km/h (3 Bft) 93,62 %
19.05.2023 16:56 21,9 C 26,7 C 17,8 C 47 % 1022,9 hPa 0,0 l/m 2 min 0 min 678 W/m 16,1 km/h (3 Bft) 93,62 %
19.05.2023 16:58 21,8 C 27,2 C 17,8 C 46 % 1023,0 hPa 0,0 l/m 2 min 0 min 671 W/m 16,1 km/h (3 Bft) 95,74 %
19.05.2023 17:00 21,9 C 27,8 C 17,8 C 47 % 1022,9 hPa 0,0 l/m 2 min 0 min 662 W/m 9,7 km/h (2 Bft) 93,48 %
19.05.2023 17:02 21,9 C 27,2 C 18,3 C 48 % 1023,0 hPa 0,0 l/m 2 min 0 min 654 W/m 9,7 km/h (2 Bft) 95,74 %
19.05.2023 17:04 22,0 C 26,7 C 17,8 C 45 % 1022,9 hPa 0,0 l/m 2 min 0 min 647 W/m 16,1 km/h (3 Bft) 93,88 %
19.05.2023 17:06 22,0 C 27,2 C 18,3 C 46 % 1022,9 hPa 0,0 l/m 2 min 0 min 640 W/m 12,9 km/h (3 Bft) 96,55 %
19.05.2023 17:08 22,0 C 27,2 C 17,8 C 46 % 1022,9 hPa 0,0 l/m 2 min 0 min 637 W/m 9,7 km/h (2 Bft) 94,44 %
19.05.2023 17:10 21,9 C 27,2 C 18,3 C 46 % 1022,9 hPa 0,0 l/m 2 min 0 min 629 W/m 12,9 km/h (3 Bft) 97,83 %
19.05.2023 17:12 21,9 C 27,2 C 18,3 C 47 % 1022,9 hPa 0,0 l/m 2 min 0 min 623 W/m 16,1 km/h (3 Bft) 100,00 %
19.05.2023 17:14 21,9 C 26,7 C 18,3 C 46 % 1022,8 hPa 0,0 l/m 2 min 0 min 616 W/m 19,3 km/h (3 Bft) 100,00 %
19.05.2023 17:16 22,0 C 27,2 C 18,3 C 47 % 1022,8 hPa 0,0 l/m 2 min 0 min 613 W/m 16,1 km/h (3 Bft) 100,00 %
19.05.2023 17:18 22,1 C 27,2 C 18,3 C 47 % 1022,8 hPa 0,0 l/m 2 min 0 min 607 W/m 12,9 km/h (3 Bft) 100,00 %
19.05.2023 17:20 22,2 C 27,8 C 18,9 C 47 % 1022,9 hPa 0,0 l/m 2 min 0 min 606 W/m 16,1 km/h (3 Bft) 100,00 %
19.05.2023 17:22 22,2 C 27,2 C 18,3 C 45 % 1022,8 hPa 0,0 l/m 2 min 0 min 600 W/m 12,9 km/h (3 Bft) 100,00 %
19.05.2023 17:24 22,1 C 25,6 C 17,8 C 44 % 1022,8 hPa 0,0 l/m 2 min 0 min 592 W/m 16,1 km/h (3 Bft) 100,00 %
19.05.2023 17:26 22,1 C 26,1 C 17,8 C 46 % 1022,8 hPa 0,0 l/m 2 min 0 min 584 W/m 6,4 km/h (2 Bft) 100,00 %
19.05.2023 17:28 22,1 C 27,2 C 18,3 C 46 % 1022,7 hPa 0,0 l/m 2 min 0 min 583 W/m 9,7 km/h (2 Bft) 100,00 %
19.05.2023 17:30 22,2 C 26,7 C 18,3 C 46 % 1022,7 hPa 0,0 l/m 2 min 0 min 571 W/m 9,7 km/h (2 Bft) 100,00 %
19.05.2023 17:32 22,2 C 26,1 C 18,3 C 45 % 1022,7 hPa 0,0 l/m 2 min 0 min 568 W/m 16,1 km/h (3 Bft) 100,00 %
19.05.2023 17:34 22,2 C 26,1 C 18,3 C 47 % 1022,7 hPa 0,0 l/m 2 min 0 min 559 W/m 12,9 km/h (3 Bft) 100,00 %
19.05.2023 17:36 22,1 C 26,7 C 18,3 C 45 % 1022,7 hPa 0,0 l/m 2 min 0 min 551 W/m 19,3 km/h (3 Bft) 100,00 %
19.05.2023 17:38 22,1 C 27,2 C 18,9 C 46 % 1022,7 hPa 0,0 l/m 2 min 0 min 544 W/m 19,3 km/h (3 Bft) 100,00 %
19.05.2023 17:40 22,1 C 26,7 C 18,3 C 45 % 1022,7 hPa 0,0 l/m 2 min 0 min 550 W/m 12,9 km/h (3 Bft) 100,00 %
19.05.2023 17:42 22,0 C 26,7 C 18,3 C 44 % 1022,7 hPa 0,0 l/m 2 min 0 min 543 W/m 16,1 km/h (3 Bft) 100,00 %
19.05.2023 17:44 22,1 C 27,2 C 18,9 C 46 % 1022,6 hPa 0,0 l/m 2 min 0 min 535 W/m 9,7 km/h (2 Bft) 100,00 %
19.05.2023 17:46 22,0 C 27,2 C 18,3 C 44 % 1022,6 hPa 0,0 l/m 2 min 0 min 528 W/m 9,7 km/h (2 Bft) 100,00 %
19.05.2023 17:48 22,0 C 26,7 C 18,9 C 44 % 1022,6 hPa 0,0 l/m 2 min 0 min 522 W/m 16,1 km/h (3 Bft) 100,00 %
19.05.2023 17:50 22,0 C 27,2 C 18,9 C 45 % 1022,6 hPa 0,0 l/m 2 min 0 min 519 W/m 9,7 km/h (2 Bft) 97,83 %
19.05.2023 17:52 22,1 C 26,7 C 18,9 C 45 % 1022,6 hPa 0,0 l/m 2 min 0 min 515 W/m 9,7 km/h (2 Bft) 100,00 %
19.05.2023 17:54 22,1 C 27,2 C 18,9 C 46 % 1022,6 hPa 0,0 l/m 2 min 0 min 506 W/m 12,9 km/h (3 Bft) 100,00 %
19.05.2023 17:56 22,1 C 27,2 C 18,9 C 46 % 1022,5 hPa 0,0 l/m 2 min 0 min 499 W/m 16,1 km/h (3 Bft) 100,00 %
19.05.2023 17:58 22,1 C 27,2 C 18,9 C 45 % 1022,5 hPa 0,0 l/m 2 min 0 min 496 W/m 9,7 km/h (2 Bft) 100,00 %
19.05.2023 18:00 21,9 C 26,7 C 18,3 C 46 % 1022,5 hPa 0,0 l/m 2 min 0 min 463 W/m 12,9 km/h (3 Bft) 100,00 %
19.05.2023 18:02 21,8 C 26,7 C 18,3 C 45 % 1022,5 hPa 0,0 l/m 2 min 0 min 468 W/m 16,1 km/h (3 Bft) 100,00 %
19.05.2023 18:04 21,7 C 26,1 C 18,3 C 45 % 1022,5 hPa 0,0 l/m 2 min 0 min 472 W/m 16,1 km/h (3 Bft) 100,00 %
19.05.2023 18:08 21,7 C 26,7 C 18,3 C 45 % 1022,5 hPa 0,0 l/m 4 min 0 min 466 W/m 12,9 km/h (3 Bft) 100,00 %
19.05.2023 18:10 21,7 C 26,7 C 18,3 C 47 % 1022,5 hPa 0,0 l/m 2 min 0 min 460 W/m 9,7 km/h (2 Bft) 100,00 %
19.05.2023 18:12 21,8 C 26,7 C 18,3 C 46 % 1022,5 hPa 0,0 l/m 2 min 0 min 455 W/m 12,9 km/h (3 Bft) 100,00 %
19.05.2023 18:14 21,8 C 26,7 C 18,3 C 46 % 1022,4 hPa 0,0 l/m 2 min 0 min 448 W/m 16,1 km/h (3 Bft) 100,00 %
19.05.2023 18:16 21,8 C 26,7 C 18,3 C 46 % 1022,4 hPa 0,0 l/m 2 min 0 min 440 W/m 12,9 km/h (3 Bft) 100,00 %
19.05.2023 18:18 21,8 C 26,7 C 18,3 C 45 % 1022,3 hPa 0,0 l/m 2 min 0 min 436 W/m 19,3 km/h (3 Bft) 100,00 %
19.05.2023 18:20 21,8 C 27,2 C 18,3 C 45 % 1022,4 hPa 0,0 l/m 2 min 0 min 431 W/m 19,3 km/h (3 Bft) 100,00 %
19.05.2023 18:22 21,8 C 26,7 C 18,3 C 44 % 1022,4 hPa 0,0 l/m 2 min 0 min 427 W/m 16,1 km/h (3 Bft) 100,00 %
19.05.2023 18:24 21,8 C 27,2 C 18,3 C 45 % 1022,4 hPa 0,0 l/m 2 min 0 min 421 W/m 16,1 km/h (3 Bft) 100,00 %
19.05.2023 18:26 21,8 C 26,7 C 18,3 C 45 % 1022,3 hPa 0,0 l/m 2 min 0 min 408 W/m 12,9 km/h (3 Bft) 100,00 %
19.05.2023 18:28 21,7 C 25,6 C 17,8 C 45 % 1022,3 hPa 0,0 l/m 2 min 0 min 400 W/m 16,1 km/h (3 Bft) 100,00 %
19.05.2023 18:30 21,6 C 25,0 C 17,8 C 46 % 1022,3 hPa 0,0 l/m 0 min 0 min 143 W/m 16,1 km/h (3 Bft) 97,87 %
19.05.2023 18:32 21,5 C 25,0 C 17,8 C 46 % 1022,3 hPa 0,0 l/m 2 min 0 min 379 W/m 19,3 km/h (3 Bft) 95,12 %
19.05.2023 18:34 21,4 C 25,6 C 17,8 C 46 % 1022,3 hPa 0,0 l/m 2 min 0 min 383 W/m 19,3 km/h (3 Bft) 100,00 %
19.05.2023 18:36 21,4 C 26,1 C 17,8 C 46 % 1022,3 hPa 0,0 l/m 2 min 0 min 380 W/m 16,1 km/h (3 Bft) 100,00 %
19.05.2023 18:38 21,4 C 26,7 C 17,8 C 47 % 1022,2 hPa 0,0 l/m 2 min 0 min 373 W/m 12,9 km/h (3 Bft) 100,00 %
19.05.2023 18:40 21,4 C 26,1 C 17,8 C 47 % 1022,2 hPa 0,0 l/m 2 min 0 min 366 W/m 19,3 km/h (3 Bft) 97,87 %
19.05.2023 18:42 21,4 C 26,1 C 17,8 C 48 % 1022,2 hPa 0,0 l/m 2 min 0 min 359 W/m 16,1 km/h (3 Bft) 95,65 %
19.05.2023 18:44 21,4 C 26,1 C 17,8 C 47 % 1022,2 hPa 0,0 l/m 2 min 0 min 351 W/m 16,1 km/h (3 Bft) 97,87 %
19.05.2023 18:46 21,3 C 25,6 C 17,2 C 46 % 1022,2 hPa 0,0 l/m 2 min 0 min 343 W/m 12,9 km/h (3 Bft) 97,87 %
19.05.2023 18:48 21,2 C 24,4 C 17,2 C 45 % 1022,2 hPa 0,0 l/m 2 min 0 min 336 W/m 16,1 km/h (3 Bft) 95,74 %
19.05.2023 18:50 21,1 C 25,0 C 16,7 C 46 % 1022,1 hPa 0,0 l/m 2 min 0 min 330 W/m 12,9 km/h (3 Bft) 95,74 %
19.05.2023 18:52 21,1 C 25,6 C 16,7 C 47 % 1022,1 hPa 0,0 l/m 2 min 0 min 325 W/m 9,7 km/h (2 Bft) 95,74 %
19.05.2023 18:54 21,1 C 25,6 C 16,7 C 47 % 1022,1 hPa 0,0 l/m 2 min 0 min 322 W/m 16,1 km/h (3 Bft) 95,65 %
19.05.2023 18:56 20,9 C 26,1 C 16,1 C 47 % 1022,1 hPa 0,0 l/m 2 min 0 min 317 W/m 12,9 km/h (3 Bft) 95,74 %
19.05.2023 18:58 20,8 C 26,1 C 16,1 C 48 % 1022,1 hPa 0,0 l/m 2 min 0 min 310 W/m 12,9 km/h (3 Bft) 91,49 %
19.05.2023 19:00 20,7 C 25,0 C 16,1 C 48 % 1022,2 hPa 0,0 l/m 2 min 0 min 302 W/m 19,3 km/h (3 Bft) 93,62 %
19.05.2023 19:02 20,6 C 25,0 C 15,6 C 48 % 1022,2 hPa 0,0 l/m 2 min 0 min 295 W/m 12,9 km/h (3 Bft) 95,74 %
19.05.2023 19:04 20,5 C 24,4 C 15,6 C 49 % 1022,1 hPa 0,0 l/m 2 min 0 min 290 W/m 12,9 km/h (3 Bft) 95,24 %
19.05.2023 19:06 20,4 C 23,9 C 15,6 C 49 % 1022,1 hPa 0,0 l/m 2 min 0 min 282 W/m 22,5 km/h (4 Bft) 96,61 %
19.05.2023 19:08 20,3 C 23,9 C 15,6 C 48 % 1022,1 hPa 0,0 l/m 2 min 0 min 275 W/m 9,7 km/h (2 Bft) 95,74 %
19.05.2023 19:10 20,3 C 23,3 C 15,6 C 49 % 1022,1 hPa 0,0 l/m 2 min 0 min 267 W/m 16,1 km/h (3 Bft) 94,29 %
19.05.2023 19:12 20,3 C 23,3 C 15,6 C 48 % 1022,1 hPa 0,0 l/m 2 min 0 min 260 W/m 16,1 km/h (3 Bft) 93,62 %
19.05.2023 19:14 20,2 C 22,8 C 15,6 C 49 % 1022,1 hPa 0,0 l/m 2 min 0 min 255 W/m 12,9 km/h (3 Bft) 95,65 %
19.05.2023 19:16 20,1 C 21,1 C 15,6 C 50 % 1022,2 hPa 0,0 l/m 2 min 0 min 247 W/m 6,4 km/h (2 Bft) 97,87 %
19.05.2023 19:18 20,0 C 20,6 C 15,0 C 50 % 1022,2 hPa 0,0 l/m 2 min 0 min 239 W/m 9,7 km/h (2 Bft) 95,74 %
19.05.2023 19:20 19,9 C 20,0 C 15,0 C 50 % 1022,1 hPa 0,0 l/m 2 min 0 min 231 W/m 12,9 km/h (3 Bft) 97,87 %
19.05.2023 19:22 19,9 C 19,4 C 15,0 C 49 % 1022,1 hPa 0,0 l/m 2 min 0 min 224 W/m 19,3 km/h (3 Bft) 95,74 %
19.05.2023 19:24 19,8 C 19,4 C 15,0 C 49 % 1022,1 hPa 0,0 l/m 2 min 0 min 216 W/m 12,9 km/h (3 Bft) 97,87 %
19.05.2023 19:26 19,7 C 18,9 C 15,0 C 50 % 1022,1 hPa 0,0 l/m 2 min 0 min 209 W/m 19,3 km/h (3 Bft) 97,83 %
19.05.2023 19:28 19,7 C 18,9 C 15,0 C 50 % 1022,1 hPa 0,0 l/m 2 min 0 min 203 W/m 16,1 km/h (3 Bft) 93,62 %
19.05.2023 19:30 19,6 C 18,9 C 15,0 C 50 % 1022,1 hPa 0,0 l/m 2 min 0 min 196 W/m 16,1 km/h (3 Bft) 95,74 %
19.05.2023 19:32 19,6 C 18,9 C 15,0 C 49 % 1022,2 hPa 0,0 l/m 2 min 0 min 173 W/m 19,3 km/h (3 Bft) 97,87 %
19.05.2023 19:34 19,6 C 18,9 C 15,0 C 50 % 1022,2 hPa 0,0 l/m 0 min 0 min 100 W/m 16,1 km/h (3 Bft) 97,87 %
19.05.2023 19:36 19,4 C 18,9 C 15,0 C 50 % 1022,2 hPa 0,0 l/m 0 min 0 min 60 W/m 22,5 km/h (4 Bft) 97,87 %
19.05.2023 19:38 19,4 C 18,9 C 15,0 C 50 % 1022,2 hPa 0,0 l/m 0 min 0 min 57 W/m 19,3 km/h (3 Bft) 95,74 %
19.05.2023 19:40 19,3 C 18,9 C 15,0 C 50 % 1022,2 hPa 0,0 l/m 0 min 0 min 55 W/m 19,3 km/h (3 Bft) 97,83 %
19.05.2023 19:42 19,3 C 18,9 C 15,0 C 50 % 1022,2 hPa 0,0 l/m 0 min 0 min 54 W/m 12,9 km/h (3 Bft) 97,87 %
19.05.2023 19:44 19,2 C 18,9 C 14,4 C 50 % 1022,2 hPa 0,0 l/m 0 min 0 min 53 W/m 16,1 km/h (3 Bft) 97,87 %
19.05.2023 19:46 19,2 C 18,3 C 14,4 C 50 % 1022,2 hPa 0,0 l/m 0 min 0 min 52 W/m 25,7 km/h (4 Bft) 95,74 %
19.05.2023 19:48 19,1 C 18,3 C 14,4 C 50 % 1022,3 hPa 0,0 l/m 0 min 0 min 51 W/m 12,9 km/h (3 Bft) 97,87 %
19.05.2023 19:50 19,0 C 18,3 C 14,4 C 51 % 1022,3 hPa 0,0 l/m 0 min 0 min 49 W/m 12,9 km/h (3 Bft) 97,87 %
19.05.2023 19:52 18,9 C 18,3 C 14,4 C 51 % 1022,3 hPa 0,0 l/m 0 min 0 min 48 W/m 16,1 km/h (3 Bft) 95,74 %
19.05.2023 19:54 18,9 C 18,3 C 14,4 C 51 % 1022,2 hPa 0,0 l/m 0 min 0 min 47 W/m 12,9 km/h (3 Bft) 93,48 %
19.05.2023 19:56 18,8 C 18,3 C 14,4 C 51 % 1022,2 hPa 0,0 l/m 0 min 0 min 46 W/m 32,2 km/h (5 Bft) 97,87 %
19.05.2023 19:58 18,7 C 18,3 C 14,4 C 50 % 1022,3 hPa 0,0 l/m 0 min 0 min 46 W/m 12,9 km/h (3 Bft) 97,87 %
19.05.2023 20:00 18,7 C 18,3 C 13,9 C 51 % 1022,4 hPa 0,0 l/m 0 min 0 min 44 W/m 12,9 km/h (3 Bft) 97,87 %
19.05.2023 20:02 18,6 C 17,8 C 13,9 C 50 % 1022,4 hPa 0,0 l/m 0 min 0 min 43 W/m 16,1 km/h (3 Bft) 97,87 %
19.05.2023 20:04 18,6 C 17,8 C 13,9 C 51 % 1022,4 hPa 0,0 l/m 0 min 0 min 42 W/m 16,1 km/h (3 Bft) 97,87 %
19.05.2023 20:06 18,6 C 17,8 C 13,9 C 51 % 1022,4 hPa 0,0 l/m 0 min 0 min 41 W/m 19,3 km/h (3 Bft) 94,83 %
19.05.2023 20:08 18,6 C 17,8 C 13,9 C 51 % 1022,4 hPa 0,0 l/m 0 min 0 min 40 W/m 12,9 km/h (3 Bft) 97,14 %
19.05.2023 20:10 18,6 C 17,8 C 13,9 C 51 % 1022,4 hPa 0,0 l/m 0 min 0 min 39 W/m 19,3 km/h (3 Bft) 97,87 %
19.05.2023 20:12 18,6 C 17,8 C 13,9 C 51 % 1022,4 hPa 0,0 l/m 0 min 0 min 39 W/m 16,1 km/h (3 Bft) 100,00 %
19.05.2023 20:14 18,5 C 17,8 C 13,9 C 51 % 1022,4 hPa 0,0 l/m 0 min 0 min 37 W/m 19,3 km/h (3 Bft) 100,00 %
19.05.2023 20:16 18,5 C 17,8 C 13,9 C 51 % 1022,4 hPa 0,0 l/m 0 min 0 min 35 W/m 16,1 km/h (3 Bft) 100,00 %
19.05.2023 20:18 18,4 C 17,8 C 13,9 C 51 % 1022,3 hPa 0,0 l/m 0 min 0 min 35 W/m 16,1 km/h (3 Bft) 100,00 %
19.05.2023 20:20 18,4 C 17,8 C 13,9 C 51 % 1022,4 hPa 0,0 l/m 0 min 0 min 33 W/m 25,7 km/h (4 Bft) 100,00 %
19.05.2023 20:22 18,4 C 17,8 C 13,9 C 51 % 1022,3 hPa 0,0 l/m 0 min 0 min 33 W/m 22,5 km/h (4 Bft) 100,00 %
19.05.2023 20:24 18,4 C 17,8 C 13,9 C 51 % 1022,4 hPa 0,0 l/m 0 min 0 min 32 W/m 16,1 km/h (3 Bft) 100,00 %
19.05.2023 20:26 18,4 C 17,8 C 13,9 C 52 % 1022,4 hPa 0,0 l/m 0 min 0 min 31 W/m 16,1 km/h (3 Bft) 100,00 %
19.05.2023 20:28 18,3 C 17,2 C 13,9 C 52 % 1022,4 hPa 0,0 l/m 0 min 0 min 30 W/m 12,9 km/h (3 Bft) 100,00 %
19.05.2023 20:30 18,3 C 17,2 C 13,3 C 52 % 1022,5 hPa 0,0 l/m 0 min 0 min 28 W/m 12,9 km/h (3 Bft) 100,00 %
19.05.2023 20:32 18,2 C 17,2 C 13,3 C 53 % 1022,5 hPa 0,0 l/m 0 min 0 min 28 W/m 9,7 km/h (2 Bft) 97,83 %
19.05.2023 20:34 18,2 C 17,2 C 13,3 C 53 % 1022,5 hPa 0,0 l/m 0 min 0 min 26 W/m 9,7 km/h (2 Bft) 100,00 %
19.05.2023 20:36 18,1 C 17,2 C 13,3 C 53 % 1022,5 hPa 0,0 l/m 0 min 0 min 26 W/m 9,7 km/h (2 Bft) 100,00 %
19.05.2023 20:38 18,1 C 17,2 C 13,3 C 53 % 1022,5 hPa 0,0 l/m 0 min 0 min 25 W/m 6,4 km/h (2 Bft) 100,00 %
19.05.2023 20:40 18,0 C 17,2 C 13,3 C 52 % 1022,5 hPa 0,0 l/m 0 min 0 min 25 W/m 12,9 km/h (3 Bft) 100,00 %
19.05.2023 20:42 18,0 C 17,2 C 13,3 C 53 % 1022,5 hPa 0,0 l/m 0 min 0 min 23 W/m 12,9 km/h (3 Bft) 97,87 %
19.05.2023 20:44 17,9 C 16,7 C 13,3 C 53 % 1022,5 hPa 0,0 l/m 0 min 0 min 22 W/m 9,7 km/h (2 Bft) 93,62 %
19.05.2023 20:46 17,9 C 17,2 C 13,3 C 53 % 1022,5 hPa 0,0 l/m 0 min 0 min 21 W/m 6,4 km/h (2 Bft) 97,83 %
19.05.2023 20:48 17,9 C 16,7 C 13,3 C 53 % 1022,5 hPa 0,0 l/m 0 min 0 min 20 W/m 12,9 km/h (3 Bft) 97,87 %
19.05.2023 20:50 17,8 C 16,7 C 13,3 C 53 % 1022,6 hPa 0,0 l/m 0 min 0 min 19 W/m 6,4 km/h (2 Bft) 100,00 %
19.05.2023 20:52 17,8 C 16,7 C 13,3 C 53 % 1022,6 hPa 0,0 l/m 0 min 0 min 19 W/m 6,4 km/h (2 Bft) 97,87 %
19.05.2023 20:54 17,8 C 16,7 C 13,3 C 53 % 1022,6 hPa 0,0 l/m 0 min 0 min 18 W/m 9,7 km/h (2 Bft) 97,87 %
19.05.2023 20:56 17,7 C 16,7 C 12,8 C 54 % 1022,6 hPa 0,0 l/m 0 min 0 min 16 W/m 6,4 km/h (2 Bft) 97,87 %
19.05.2023 20:58 17,7 C 16,7 C 12,8 C 54 % 1022,6 hPa 0,0 l/m 0 min 0 min 16 W/m 9,7 km/h (2 Bft) 95,74 %
19.05.2023 21:00 17,6 C 16,7 C 12,8 C 54 % 1022,6 hPa 0,0 l/m 0 min 0 min 15 W/m 12,9 km/h (3 Bft) 56,52 %
19.05.2023 21:02 17,6 C 16,7 C 12,8 C 54 % 1022,6 hPa 0,0 l/m 0 min 0 min 13 W/m 9,7 km/h (2 Bft) 95,74 %
19.05.2023 21:04 17,6 C 16,7 C 12,8 C 54 % 1022,6 hPa 0,0 l/m 0 min 0 min 12 W/m 12,9 km/h (3 Bft) 95,92 %
19.05.2023 21:06 17,5 C 16,7 C 12,8 C 54 % 1022,6 hPa 0,0 l/m 0 min 0 min 11 W/m 16,1 km/h (3 Bft) 96,61 %
19.05.2023 21:08 17,4 C 16,7 C 12,8 C 54 % 1022,6 hPa 0,0 l/m 0 min 0 min 9 W/m 16,1 km/h (3 Bft) 100,00 %
19.05.2023 21:10 17,4 C 16,7 C 12,8 C 54 % 1022,6 hPa 0,0 l/m 0 min 0 min 9 W/m 6,4 km/h (2 Bft) 95,74 %
19.05.2023 21:12 17,4 C 16,1 C 12,8 C 55 % 1022,7 hPa 0,0 l/m 0 min 0 min 7 W/m 12,9 km/h (3 Bft) 97,87 %
19.05.2023 21:14 17,4 C 16,1 C 12,8 C 55 % 1022,6 hPa 0,0 l/m 0 min 0 min 7 W/m 12,9 km/h (3 Bft) 97,83 %
19.05.2023 21:16 17,3 C 16,1 C 12,8 C 55 % 1022,7 hPa 0,0 l/m 0 min 0 min 5 W/m 12,9 km/h (3 Bft) 100,00 %
19.05.2023 21:18 17,3 C 16,1 C 12,8 C 55 % 1022,7 hPa 0,0 l/m 0 min 0 min 5 W/m 9,7 km/h (2 Bft) 100,00 %
19.05.2023 21:20 17,2 C 16,1 C 12,8 C 56 % 1022,7 hPa 0,0 l/m 0 min 0 min 5 W/m 9,7 km/h (2 Bft) 100,00 %
19.05.2023 21:22 17,2 C 16,1 C 12,2 C 55 % 1022,8 hPa 0,0 l/m 0 min 0 min 2 W/m 16,1 km/h (3 Bft) 100,00 %
19.05.2023 21:24 17,1 C 16,1 C 12,2 C 56 % 1022,8 hPa 0,0 l/m 0 min 0 min 0 W/m 6,4 km/h (2 Bft) 100,00 %
19.05.2023 21:26 17,1 C 16,1 C 12,2 C 56 % 1022,8 hPa 0,0 l/m 0 min 0 min 0 W/m 6,4 km/h (2 Bft) 100,00 %
19.05.2023 21:28 17,1 C 16,1 C 12,2 C 56 % 1022,8 hPa 0,0 l/m 0 min 0 min 0 W/m 9,7 km/h (2 Bft) 100,00 %
19.05.2023 21:30 17,0 C 15,6 C 12,2 C 56 % 1022,9 hPa 0,0 l/m 0 min 0 min 0 W/m 9,7 km/h (2 Bft) 100,00 %
19.05.2023 21:32 16,9 C 15,6 C 12,2 C 56 % 1022,8 hPa 0,0 l/m 0 min 0 min 0 W/m 12,9 km/h (3 Bft) 97,87 %
19.05.2023 21:34 16,9 C 15,6 C 12,2 C 56 % 1022,9 hPa 0,0 l/m 0 min 0 min 0 W/m 9,7 km/h (2 Bft) 97,87 %
19.05.2023 21:36 16,8 C 15,6 C 12,2 C 56 % 1022,9 hPa 0,0 l/m 0 min 0 min 0 W/m 16,1 km/h (3 Bft) 95,74 %
19.05.2023 21:38 16,8 C 15,6 C 12,2 C 56 % 1022,9 hPa 0,0 l/m 0 min 0 min 0 W/m 16,1 km/h (3 Bft) 97,87 %
19.05.2023 21:40 16,8 C 15,6 C 12,2 C 56 % 1022,9 hPa 0,0 l/m 0 min 0 min 0 W/m 6,4 km/h (2 Bft) 95,65 %
19.05.2023 21:42 16,8 C 15,6 C 12,2 C 57 % 1022,9 hPa 0,0 l/m 0 min 0 min 0 W/m 6,4 km/h (2 Bft) 97,87 %
19.05.2023 21:44 16,7 C 15,6 C 12,2 C 57 % 1022,9 hPa 0,0 l/m 0 min 0 min 0 W/m 16,1 km/h (3 Bft) 97,87 %
19.05.2023 21:46 16,7 C 15,6 C 12,2 C 57 % 1022,9 hPa 0,0 l/m 0 min 0 min 0 W/m 6,4 km/h (2 Bft) 95,74 %
19.05.2023 21:48 16,7 C 15,6 C 12,2 C 57 % 1023,0 hPa 0,0 l/m 0 min 0 min 0 W/m 6,4 km/h (2 Bft) 97,87 %
19.05.2023 21:50 16,6 C 15,6 C 12,2 C 57 % 1023,0 hPa 0,0 l/m 0 min 0 min 0 W/m 12,9 km/h (3 Bft) 95,74 %
19.05.2023 21:52 16,6 C 15,6 C 12,2 C 57 % 1023,0 hPa 0,0 l/m 0 min 0 min 0 W/m 6,4 km/h (2 Bft) 97,83 %
19.05.2023 21:54 16,6 C 15,6 C 11,7 C 57 % 1023,0 hPa 0,0 l/m 0 min 0 min 0 W/m 9,7 km/h (2 Bft) 91,49 %
19.05.2023 21:56 16,5 C 15,6 C 11,7 C 57 % 1023,0 hPa 0,0 l/m 0 min 0 min 0 W/m 16,1 km/h (3 Bft) 95,74 %
19.05.2023 21:58 16,5 C 15,6 C 11,7 C 58 % 1023,0 hPa 0,0 l/m 0 min 0 min 0 W/m 6,4 km/h (2 Bft) 95,74 %
19.05.2023 22:00 16,4 C 15,0 C 11,7 C 58 % 1023,0 hPa 0,0 l/m 0 min 0 min 0 W/m 6,4 km/h (2 Bft) 95,74 %
19.05.2023 22:02 16,4 C 15,0 C 11,7 C 58 % 1023,1 hPa 0,0 l/m 0 min 0 min 0 W/m 12,9 km/h (3 Bft) 95,74 %
19.05.2023 22:04 16,3 C 15,0 C 11,7 C 58 % 1023,1 hPa 0,0 l/m 0 min 0 min 0 W/m 6,4 km/h (2 Bft) 95,92 %
19.05.2023 22:06 16,3 C 15,0 C 11,7 C 58 % 1023,1 hPa 0,0 l/m 0 min 0 min 0 W/m 6,4 km/h (2 Bft) 93,10 %
19.05.2023 22:08 16,3 C 15,0 C 11,7 C 59 % 1023,1 hPa 0,0 l/m 0 min 0 min 0 W/m 6,4 km/h (2 Bft) 94,29 %
19.05.2023 22:10 16,2 C 15,0 C 11,7 C 59 % 1023,1 hPa 0,0 l/m 0 min 0 min 0 W/m 6,4 km/h (2 Bft) 93,62 %
19.05.2023 22:12 16,2 C 15,0 C 11,7 C 58 % 1023,1 hPa 0,0 l/m 0 min 0 min 0 W/m 6,4 km/h (2 Bft) 95,74 %
19.05.2023 22:14 16,2 C 15,0 C 11,7 C 59 % 1023,2 hPa 0,0 l/m 0 min 0 min 0 W/m 6,4 km/h (2 Bft) 95,74 %
19.05.2023 22:16 16,1 C 15,0 C 11,7 C 59 % 1023,2 hPa 0,0 l/m 0 min 0 min 0 W/m 6,4 km/h (2 Bft) 95,74 %
19.05.2023 22:18 16,1 C 15,0 C 11,7 C 59 % 1023,2 hPa 0,0 l/m 0 min 0 min 0 W/m 6,4 km/h (2 Bft) 95,74 %
19.05.2023 22:20 16,1 C 15,0 C 11,1 C 59 % 1023,2 hPa 0,0 l/m 0 min 0 min 0 W/m 6,4 km/h (2 Bft) 93,48 %
19.05.2023 22:22 16,1 C 15,0 C 11,1 C 58 % 1023,2 hPa 0,0 l/m 0 min 0 min 0 W/m 12,9 km/h (3 Bft) 95,74 %
19.05.2023 22:24 16,0 C 15,0 C 11,1 C 59 % 1023,2 hPa 0,0 l/m 0 min 0 min 0 W/m 6,4 km/h (2 Bft) 95,74 %
19.05.2023 22:26 15,9 C 15,0 C 11,1 C 59 % 1023,2 hPa 0,0 l/m 0 min 0 min 0 W/m 6,4 km/h (2 Bft) 95,74 %
19.05.2023 22:28 15,9 C 15,0 C 11,1 C 58 % 1023,2 hPa 0,0 l/m 0 min 0 min 0 W/m 12,9 km/h (3 Bft) 97,87 %
19.05.2023 22:30 15,9 C 15,0 C 11,1 C 58 % 1023,2 hPa 0,0 l/m 0 min 0 min 0 W/m 6,4 km/h (2 Bft) 95,74 %
19.05.2023 22:32 15,9 C 15,0 C 11,1 C 59 % 1023,3 hPa 0,0 l/m 0 min 0 min 0 W/m 6,4 km/h (2 Bft) 97,87 %
19.05.2023 22:34 15,9 C 15,0 C 11,1 C 59 % 1023,3 hPa 0,0 l/m 0 min 0 min 0 W/m 3,2 km/h (1 Bft) 95,65 %
19.05.2023 22:36 15,8 C 15,0 C 11,1 C 59 % 1023,2 hPa 0,0 l/m 0 min 0 min 0 W/m 12,9 km/h (3 Bft) 97,87 %
19.05.2023 22:38 15,8 C 15,0 C 11,1 C 59 % 1023,3 hPa 0,0 l/m 0 min 0 min 0 W/m 6,4 km/h (2 Bft) 95,74 %
19.05.2023 22:40 15,8 C 15,0 C 11,1 C 59 % 1023,2 hPa 0,0 l/m 0 min 0 min 0 W/m 3,2 km/h (1 Bft) 95,74 %
19.05.2023 22:42 15,8 C 14,4 C 11,1 C 59 % 1023,3 hPa 0,0 l/m 0 min 0 min 0 W/m 3,2 km/h (1 Bft) 95,74 %
19.05.2023 22:44 15,8 C 14,4 C 11,1 C 59 % 1023,3 hPa 0,0 l/m 0 min 0 min 0 W/m 16,1 km/h (3 Bft) 97,87 %
19.05.2023 22:46 15,7 C 14,4 C 11,1 C 59 % 1023,3 hPa 0,0 l/m 0 min 0 min 0 W/m 6,4 km/h (2 Bft) 97,83 %
19.05.2023 22:48 15,7 C 14,4 C 11,1 C 59 % 1023,3 hPa 0,0 l/m 0 min 0 min 0 W/m 19,3 km/h (3 Bft) 95,74 %
19.05.2023 22:50 15,7 C 14,4 C 11,1 C 60 % 1023,3 hPa 0,0 l/m 0 min 0 min 0 W/m 6,4 km/h (2 Bft) 97,87 %
19.05.2023 22:52 15,7 C 14,4 C 11,1 C 59 % 1023,3 hPa 0,0 l/m 0 min 0 min 0 W/m 9,7 km/h (2 Bft) 95,74 %
19.05.2023 22:54 15,6 C 14,4 C 11,1 C 60 % 1023,3 hPa 0,0 l/m 0 min 0 min 0 W/m 6,4 km/h (2 Bft) 98,00 %
19.05.2023 22:56 15,6 C 14,4 C 11,1 C 60 % 1023,4 hPa 0,0 l/m 0 min 0 min 0 W/m 9,7 km/h (2 Bft) 97,87 %
19.05.2023 22:58 15,6 C 14,4 C 11,1 C 60 % 1023,4 hPa 0,0 l/m 0 min 0 min 0 W/m 3,2 km/h (1 Bft) 97,96 %
19.05.2023 23:00 15,6 C 14,4 C 11,1 C 60 % 1023,4 hPa 0,0 l/m 0 min 0 min 0 W/m 3,2 km/h (1 Bft) 97,87 %
19.05.2023 23:02 15,5 C 14,4 C 11,1 C 60 % 1023,4 hPa 0,0 l/m 0 min 0 min 0 W/m 12,9 km/h (3 Bft) 97,87 %
19.05.2023 23:04 15,5 C 14,4 C 11,1 C 60 % 1023,4 hPa 0,0 l/m 0 min 0 min 0 W/m 6,4 km/h (2 Bft) 100,00 %
19.05.2023 23:06 15,4 C 14,4 C 11,1 C 61 % 1023,4 hPa 0,0 l/m 0 min 0 min 0 W/m 6,4 km/h (2 Bft) 100,00 %
19.05.2023 23:08 15,4 C 14,4 C 11,1 C 61 % 1023,4 hPa 0,0 l/m 0 min 0 min 0 W/m 12,9 km/h (3 Bft) 100,00 %
19.05.2023 23:10 15,4 C 14,4 C 10,6 C 61 % 1023,4 hPa 0,0 l/m 0 min 0 min 0 W/m 3,2 km/h (1 Bft) 100,00 %
19.05.2023 23:12 15,4 C 14,4 C 10,6 C 61 % 1023,4 hPa 0,0 l/m 0 min 0 min 0 W/m 6,4 km/h (2 Bft) 97,22 %
19.05.2023 23:14 15,3 C 13,9 C 10,6 C 61 % 1023,4 hPa 0,0 l/m 0 min 0 min 0 W/m 3,2 km/h (1 Bft) 100,00 %
19.05.2023 23:16 15,3 C 13,9 C 10,6 C 62 % 1023,4 hPa 0,0 l/m 0 min 0 min 0 W/m 6,4 km/h (2 Bft) 95,74 %
19.05.2023 23:18 15,3 C 13,9 C 10,6 C 62 % 1023,4 hPa 0,0 l/m 0 min 0 min 0 W/m 3,2 km/h (1 Bft) 100,00 %
19.05.2023 23:20 15,2 C 13,9 C 10,6 C 62 % 1023,4 hPa 0,0 l/m 0 min 0 min 0 W/m 9,7 km/h (2 Bft) 97,87 %
19.05.2023 23:22 15,2 C 13,9 C 10,6 C 62 % 1023,4 hPa 0,0 l/m 0 min 0 min 0 W/m 6,4 km/h (2 Bft) 100,00 %
19.05.2023 23:24 15,2 C 13,9 C 10,6 C 61 % 1023,4 hPa 0,0 l/m 0 min 0 min 0 W/m 12,9 km/h (3 Bft) 100,00 %
19.05.2023 23:26 15,1 C 13,9 C 10,6 C 62 % 1023,5 hPa 0,0 l/m 0 min 0 min 0 W/m 3,2 km/h (1 Bft) 100,00 %
19.05.2023 23:28 15,1 C 13,9 C 10,6 C 62 % 1023,5 hPa 0,0 l/m 0 min 0 min 0 W/m 6,4 km/h (2 Bft) 100,00 %
19.05.2023 23:30 15,1 C 13,9 C 10,6 C 62 % 1023,5 hPa 0,0 l/m 0 min 0 min 0 W/m 6,4 km/h (2 Bft) 100,00 %
19.05.2023 23:32 15,1 C 13,9 C 10,6 C 62 % 1023,5 hPa 0,0 l/m 0 min 0 min 0 W/m 3,2 km/h (1 Bft) 100,00 %
19.05.2023 23:34 15,0 C 13,9 C 10,6 C 62 % 1023,4 hPa 0,0 l/m 0 min 0 min 0 W/m 6,4 km/h (2 Bft) 97,87 %
19.05.2023 23:36 15,0 C 13,9 C 10,6 C 62 % 1023,4 hPa 0,0 l/m 0 min 0 min 0 W/m 12,9 km/h (3 Bft) 97,87 %
19.05.2023 23:38 14,9 C 13,9 C 10,6 C 63 % 1023,4 hPa 0,0 l/m 0 min 0 min 0 W/m 9,7 km/h (2 Bft) 100,00 %
19.05.2023 23:40 14,9 C 13,9 C 10,6 C 63 % 1023,5 hPa 0,0 l/m 0 min 0 min 0 W/m 3,2 km/h (1 Bft) 100,00 %
19.05.2023 23:42 14,9 C 13,9 C 10,6 C 63 % 1023,5 hPa 0,0 l/m 0 min 0 min 0 W/m 3,2 km/h (1 Bft) 100,00 %
19.05.2023 23:44 14,9 C 13,9 C 10,6 C 63 % 1023,4 hPa 0,0 l/m 0 min 0 min 0 W/m 9,7 km/h (2 Bft) 100,00 %
19.05.2023 23:46 14,8 C 13,9 C 10,0 C 63 % 1023,5 hPa 0,0 l/m 0 min 0 min 0 W/m 6,4 km/h (2 Bft) 100,00 %
19.05.2023 23:48 14,8 C 13,9 C 10,0 C 63 % 1023,5 hPa 0,0 l/m 0 min 0 min 0 W/m 3,2 km/h (1 Bft) 100,00 %
19.05.2023 23:50 14,8 C 13,3 C 10,0 C 64 % 1023,5 hPa 0,0 l/m 0 min 0 min 0 W/m 6,4 km/h (2 Bft) 100,00 %
19.05.2023 23:52 14,7 C 13,3 C 10,0 C 64 % 1023,5 hPa 0,0 l/m 0 min 0 min 0 W/m 6,4 km/h (2 Bft) 100,00 %
19.05.2023 23:54 14,7 C 13,3 C 10,0 C 64 % 1023,5 hPa 0,0 l/m 0 min 0 min 0 W/m 6,4 km/h (2 Bft) 100,00 %
19.05.2023 23:56 14,6 C 13,3 C 10,0 C 65 % 1023,6 hPa 0,0 l/m 0 min 0 min 0 W/m 9,7 km/h (2 Bft) 95,74 %
19.05.2023 23:58 14,6 C 13,3 C 10,0 C 64 % 1023,6 hPa 0,0 l/m 0 min 0 min 0 W/m 3,2 km/h (1 Bft) 100,00 %
_ Min-Zeit 05:56 05:10 04:24 14:40 18:50 - - - - 02:08 07:10
Minimum _ 7,7 C 6,7 C 3,9 C 44 % 1022,1 hPa - - - - 0,0 km/h (0 Bft) 34,38 %
_ Max-Zeit 17:20 14:18 12:48 06:36 00:00 00:00 12:12 00:00 12:58 14:38 00:02
Maximum _ 22,2 C 31,1 C 22,8 C 88 % 1026,4 hPa 0,0 l/m 4 min 0 min 932 W/m 38,6 km/h
O (5 Bft)
100,00 %
Durchschnitt _ 15,5 C 17,5 C 11,7 C 63 % 1024,5 hPa #0,0 l/m #11:38 h #0 min. 507 W/m 9,7 km/h (2 Bft) 97,32 %
© 2023 W. Hausmann